Time,TemperatureF,DewpointF,PressureIn,WindDirection,WindDirectionDegrees,WindSpeedMPH,WindSpeedGustMPH,Humidity,HourlyPrecipIn,Conditions,Clouds,dailyrainin,SoftwareType,DateUTC
2013-01-30 00:00:00,44.8,43.2,29.26,ENE,59,0.0,0.0,94,0.00,,---,0.00,VWS V14.01,2013-01-30 05:00:00,
2013-01-30 00:02:00,44.8,43.2,30.05,ENE,59,0.0,3.0,94,0.00,,,0.00,meteohub,2013-01-30 05:02:00,
2013-01-30 00:03:00,44.8,43.2,29.25,SE,143,0.0,0.0,94,0.00,,---,0.00,VWS V14.01,2013-01-30 05:03:00,
2013-01-30 00:05:00,44.6,43.0,29.25,South,191,0.9,0.9,94,0.00,,---,0.00,VWS V14.01,2013-01-30 05:05:00,
2013-01-30 00:08:00,44.8,43.2,29.25,SE,134,0.9,0.9,94,0.00,,---,0.00,VWS V14.01,2013-01-30 05:08:00,
2013-01-30 00:11:00,45.0,43.7,29.24,SE,134,0.9,0.9,95,0.00,,---,0.00,VWS V14.01,2013-01-30 05:11:00,
2013-01-30 00:13:00,45.0,43.7,29.24,SE,134,0.9,0.9,95,0.00,,---,0.00,VWS V14.01,2013-01-30 05:13:00,
2013-01-30 00:16:00,45.0,43.4,29.24,SE,134,0.0,0.9,94,0.00,,---,0.00,VWS V14.01,2013-01-30 05:16:00,
2013-01-30 00:18:00,44.8,43.2,29.24,SE,134,0.9,0.9,94,0.00,,---,0.00,VWS V14.01,2013-01-30 05:18:00,
2013-01-30 00:21:00,44.8,43.2,29.23,SE,134,0.0,0.9,94,0.00,,---,0.00,VWS V14.01,2013-01-30 05:21:00,
2013-01-30 00:24:00,44.8,43.2,30.03,SE,134,1.0,3.0,94,0.00,,,0.00,meteohub,2013-01-30 05:24:00,
2013-01-30 00:25:00,44.8,43.2,29.23,SE,134,0.9,0.9,94,0.00,,---,0.00,VWS V14.01,2013-01-30 05:25:00,
2013-01-30 00:26:00,44.8,43.2,29.23,SW,229,0.9,0.9,94,0.00,,---,0.00,VWS V14.01,2013-01-30 05:26:00,
2013-01-30 00:30:00,45.0,43.7,29.22,SE,126,0.9,0.9,95,0.00,,---,0.00,VWS V14.01,2013-01-30 05:30:00,
2013-01-30 00:32:00,45.0,43.7,29.22,SW,229,2.0,2.0,95,0.00,,---,0.00,VWS V14.01,2013-01-30 05:32:00,
2013-01-30 00:35:00,45.3,44.0,29.22,SW,229,0.9,2.0,95,0.00,,---,0.00,VWS V14.01,2013-01-30 05:35:00,
2013-01-30 00:36:00,45.3,44.0,29.22,SW,229,0.9,2.0,95,0.00,,---,0.00,VWS V14.01,2013-01-30 05:36:00,
2013-01-30 00:37:00,45.3,44.0,29.22,SW,229,0.9,2.0,95,0.00,,---,0.00,VWS V14.01,2013-01-30 05:37:00,
2013-01-30 00:40:00,45.7,44.3,29.22,North,5,0.9,0.9,95,0.00,,---,0.00,VWS V14.01,2013-01-30 05:40:00,
2013-01-30 00:41:00,45.7,44.3,29.22,North,5,0.9,0.9,95,0.00,,---,0.00,VWS V14.01,2013-01-30 05:41:00,
2013-01-30 00:42:00,45.7,44.3,29.22,NNW,339,0.9,0.9,95,0.00,,---,0.00,VWS V14.01,2013-01-30 05:42:00,
2013-01-30 00:45:00,45.9,44.5,29.22,NE,36,0.9,0.9,95,0.00,,---,0.00,VWS V14.01,2013-01-30 05:45:00,
2013-01-30 00:46:00,45.9,44.5,29.22,NE,36,0.9,0.9,95,0.00,,---,0.00,VWS V14.01,2013-01-30 05:46:00,
2013-01-30 00:47:00,45.9,44.5,29.22,NE,36,0.9,0.9,95,0.00,,---,0.00,VWS V14.01,2013-01-30 05:47:00,
2013-01-30 00:50:00,45.9,44.5,29.23,SW,217,2.0,2.0,95,0.00,,---,0.00,VWS V14.01,2013-01-30 05:50:00,
2013-01-30 00:51:00,45.9,44.5,29.23,SW,217,2.0,2.0,95,0.00,,---,0.00,VWS V14.01,2013-01-30 05:51:00,
2013-01-30 00:54:00,45.9,44.5,29.22,North,5,2.0,2.0,95,0.00,,---,0.00,VWS V14.01,2013-01-30 05:54:00,
2013-01-30 00:55:00,45.9,44.5,29.21,East,84,2.0,2.0,95,0.00,,---,0.00,VWS V14.01,2013-01-30 05:55:00,
2013-01-30 00:56:00,45.9,44.5,29.21,East,84,2.0,2.0,95,0.00,,---,0.00,VWS V14.01,2013-01-30 05:56:00,
2013-01-30 00:59:00,45.9,44.5,29.22,East,84,0.9,2.0,95,0.00,,---,0.00,VWS V14.01,2013-01-30 05:59:00,
2013-01-30 01:00:00,45.9,44.5,29.22,East,84,0.9,0.9,95,0.00,,---,0.00,VWS V14.01,2013-01-30 06:00:00,
2013-01-30 01:01:00,45.9,44.5,29.22,East,84,0.9,0.9,95,0.00,,---,0.00,VWS V14.01,2013-01-30 06:01:00,
2013-01-30 01:04:00,45.9,44.5,29.21,NE,51,2.0,2.0,95,0.00,,---,0.00,VWS V14.01,2013-01-30 06:04:00,
2013-01-30 01:07:00,45.9,44.5,29.22,NE,36,0.9,0.9,95,0.00,,---,0.00,VWS V14.01,2013-01-30 06:07:00,
2013-01-30 01:09:00,45.9,44.5,29.22,NE,36,0.9,0.9,95,0.00,,---,0.00,VWS V14.01,2013-01-30 06:09:00,
2013-01-30 01:12:00,45.9,44.5,29.21,NE,36,0.9,0.9,95,0.00,,---,0.00,VWS V14.01,2013-01-30 06:12:00,
2013-01-30 01:13:00,45.9,44.5,29.21,NE,36,0.9,0.9,95,0.00,,---,0.00,VWS V14.01,2013-01-30 06:13:00,
2013-01-30 01:14:00,45.9,44.5,29.21,NE,36,0.9,0.9,95,0.00,,---,0.00,VWS V14.01,2013-01-30 06:14:00,
2013-01-30 01:18:00,45.9,44.5,29.21,East,84,0.9,0.9,95,0.00,,---,0.00,VWS V14.01,2013-01-30 06:18:00,
2013-01-30 01:19:00,45.9,44.5,29.21,ESE,123,0.9,0.9,95,0.00,,---,0.00,VWS V14.01,2013-01-30 06:19:00,
2013-01-30 01:23:00,45.9,44.5,29.21,WSW,239,0.9,0.9,95,0.00,,---,0.00,VWS V14.01,2013-01-30 06:23:00,
2013-01-30 01:24:00,45.9,44.5,29.21,SW,221,0.9,0.9,95,0.00,,---,0.00,VWS V14.01,2013-01-30 06:24:00,
2013-01-30 01:28:00,45.9,44.5,29.21,SSW,205,2.0,2.0,95,0.00,,---,0.00,VWS V14.01,2013-01-30 06:28:00,
2013-01-30 01:29:00,45.9,44.5,29.21,SSW,205,2.0,2.0,95,0.00,,---,0.00,VWS V14.01,2013-01-30 06:29:00,
2013-01-30 01:33:00,45.9,44.5,29.21,NE,54,0.9,2.0,95,0.00,,---,0.00,VWS V14.01,2013-01-30 06:33:00,
2013-01-30 01:35:00,45.7,44.4,30.01,NE,54,0.0,9.0,95,0.00,,,0.00,meteohub,2013-01-30 06:35:00,
2013-01-30 01:38:00,45.7,44.3,29.21,NE,54,0.9,0.9,95,0.00,,---,0.00,VWS V14.01,2013-01-30 06:38:00,
2013-01-30 01:40:00,45.5,44.2,29.20,NE,54,0.9,0.9,95,0.00,,---,0.00,VWS V14.01,2013-01-30 06:40:00,
2013-01-30 01:43:00,45.3,44.0,29.20,ESE,105,0.9,0.9,95,0.00,,---,0.00,VWS V14.01,2013-01-30 06:43:00,
2013-01-30 01:45:00,45.5,44.2,29.20,ESE,105,0.9,0.9,95,0.00,,---,0.00,VWS V14.01,2013-01-30 06:45:00,
2013-01-30 01:46:00,45.5,44.2,29.20,ESE,105,0.9,0.9,95,0.00,,---,0.00,VWS V14.01,2013-01-30 06:46:00,
2013-01-30 01:49:00,45.3,44.0,29.20,North,355,0.9,0.9,95,0.00,,---,0.00,VWS V14.01,2013-01-30 06:49:00,
2013-01-30 01:50:00,45.3,44.0,29.20,North,355,0.9,0.9,95,0.00,,---,0.00,VWS V14.01,2013-01-30 06:50:00,
2013-01-30 01:51:00,45.3,44.0,29.20,North,355,0.9,0.9,95,0.00,,---,0.00,VWS V14.01,2013-01-30 06:51:00,
2013-01-30 01:54:00,45.3,44.0,29.20,NNE,13,0.9,0.9,95,0.00,,---,0.00,VWS V14.01,2013-01-30 06:54:00,
2013-01-30 01:55:00,45.3,44.0,29.19,East,82,0.9,0.9,95,0.00,,---,0.00,VWS V14.01,2013-01-30 06:55:00,
2013-01-30 01:56:00,45.3,44.0,29.19,East,82,0.9,0.9,95,0.00,,---,0.00,VWS V14.01,2013-01-30 06:56:00,
2013-01-30 01:59:00,45.3,44.0,29.20,East,82,0.9,0.9,95,0.00,,---,0.00,VWS V14.01,2013-01-30 06:59:00,
2013-01-30 02:01:00,45.7,44.3,29.20,SE,130,0.9,0.9,95,0.00,,---,0.00,VWS V14.01,2013-01-30 07:01:00,
2013-01-30 02:03:00,45.9,44.5,29.20,SW,221,0.9,0.9,95,0.00,,---,0.00,VWS V14.01,2013-01-30 07:03:00,
2013-01-30 02:04:00,45.9,44.8,29.20,West,277,0.9,0.9,96,0.00,,---,0.00,VWS V14.01,2013-01-30 07:04:00,
2013-01-30 02:06:00,46.0,44.9,29.20,SSE,168,2.0,2.0,96,0.00,,---,0.00,VWS V14.01,2013-01-30 07:06:00,
2013-01-30 02:08:00,46.4,45.3,29.20,South,189,2.0,2.0,96,0.00,,---,0.00,VWS V14.01,2013-01-30 07:08:00,
2013-01-30 02:09:00,46.6,45.5,29.19,South,189,2.0,2.0,96,0.00,,---,0.00,VWS V14.01,2013-01-30 07:09:00,
2013-01-30 02:11:00,46.8,45.7,29.19,SSW,201,2.0,2.0,96,0.00,,---,0.00,VWS V14.01,2013-01-30 07:11:00,
2013-01-30 02:13:00,46.8,45.7,29.19,SSW,209,2.0,2.0,96,0.00,,---,0.00,VWS V14.01,2013-01-30 07:13:00,
2013-01-30 02:14:00,46.8,45.7,29.19,SSW,209,2.0,2.0,96,0.00,,---,0.00,VWS V14.01,2013-01-30 07:14:00,
2013-01-30 02:17:00,46.9,45.8,29.19,NNE,18,0.9,0.9,96,0.00,,---,0.00,VWS V14.01,2013-01-30 07:17:00,
2013-01-30 02:18:00,46.9,45.8,29.19,NNE,18,0.9,0.9,96,0.00,,---,0.00,VWS V14.01,2013-01-30 07:18:00,
2013-01-30 02:19:00,46.9,45.8,29.19,NNE,18,0.9,0.9,96,0.00,,---,0.00,VWS V14.01,2013-01-30 07:19:00,
2013-01-30 02:22:00,46.9,45.5,29.18,NE,46,0.9,0.9,95,0.00,,---,0.00,VWS V14.01,2013-01-30 07:22:00,
2013-01-30 02:23:00,46.9,45.5,29.18,West,280,0.9,0.9,95,0.00,,---,0.00,VWS V14.01,2013-01-30 07:23:00,
2013-01-30 02:24:00,46.9,45.5,29.18,West,280,0.9,0.9,95,0.00,,---,0.00,VWS V14.01,2013-01-30 07:24:00,
2013-01-30 02:27:00,46.9,45.5,29.18,South,181,0.9,0.9,95,0.00,,---,0.00,VWS V14.01,2013-01-30 07:27:00,
2013-01-30 02:28:00,46.9,45.5,29.18,SSW,207,0.9,0.9,95,0.00,,---,0.00,VWS V14.01,2013-01-30 07:28:00,
2013-01-30 02:32:00,46.9,45.8,29.18,SSW,207,0.9,0.9,96,0.00,,---,0.00,VWS V14.01,2013-01-30 07:32:00,
2013-01-30 02:33:00,46.9,45.8,29.18,ENE,63,0.9,0.9,96,0.00,,---,0.00,VWS V14.01,2013-01-30 07:33:00,
2013-01-30 02:34:00,46.9,45.8,29.18,ENE,76,0.9,0.9,96,0.00,,---,0.00,VWS V14.01,2013-01-30 07:34:00,
2013-01-30 02:37:00,46.9,45.5,29.18,ENE,76,0.9,0.9,95,0.00,,---,0.00,VWS V14.01,2013-01-30 07:37:00,
2013-01-30 02:38:00,46.9,45.5,29.18,ENE,76,0.9,0.9,95,0.00,,---,0.00,VWS V14.01,2013-01-30 07:38:00,
2013-01-30 02:39:00,46.9,45.5,29.18,ENE,76,0.9,0.9,95,0.00,,---,0.00,VWS V14.01,2013-01-30 07:39:00,
2013-01-30 02:42:00,46.9,45.5,29.18,SE,132,0.9,0.9,95,0.00,,---,0.00,VWS V14.01,2013-01-30 07:42:00,
2013-01-30 02:43:00,46.9,45.5,29.18,SE,132,0.9,0.9,95,0.00,,---,0.00,VWS V14.01,2013-01-30 07:43:00,
2013-01-30 02:44:00,46.9,45.5,29.18,SE,132,0.0,0.9,95,0.00,,---,0.00,VWS V14.01,2013-01-30 07:44:00,
2013-01-30 02:47:00,46.9,45.5,29.18,SE,132,0.9,0.9,95,0.00,,---,0.00,VWS V14.01,2013-01-30 07:47:00,
2013-01-30 02:48:00,46.9,45.5,29.17,SE,132,0.9,0.9,95,0.00,,---,0.00,VWS V14.01,2013-01-30 07:48:00,
2013-01-30 02:49:00,46.8,45.5,29.18,SE,132,0.9,0.9,95,0.00,,---,0.00,VWS V14.01,2013-01-30 07:49:00,
2013-01-30 02:53:00,46.6,45.2,29.17,SE,132,0.9,0.9,95,0.00,,---,0.00,VWS V14.01,2013-01-30 07:53:00,
2013-01-30 02:54:00,46.4,45.0,29.17,WSW,251,0.9,0.9,95,0.00,,---,0.00,VWS V14.01,2013-01-30 07:54:00,
2013-01-30 02:58:00,46.2,44.8,29.16,SSE,163,0.9,0.9,95,0.00,,---,0.00,VWS V14.01,2013-01-30 07:58:00,
2013-01-30 03:00:00,46.0,44.7,29.15,ESE,108,0.9,0.9,95,0.00,,---,0.00,VWS V14.01,2013-01-30 08:00:00,
2013-01-30 03:03:00,46.2,44.8,29.16,South,191,0.9,0.9,95,0.00,,---,0.00,VWS V14.01,2013-01-30 08:03:00,
2013-01-30 03:05:00,46.6,45.5,29.15,SE,134,2.0,2.0,96,0.00,,---,0.00,VWS V14.01,2013-01-30 08:05:00,
2013-01-30 03:08:00,46.8,45.7,29.16,South,170,2.0,2.0,96,0.00,,---,0.00,VWS V14.01,2013-01-30 08:08:00,
2013-01-30 03:10:00,46.9,45.8,29.15,SSW,209,2.0,2.0,96,0.00,,---,0.00,VWS V14.01,2013-01-30 08:10:00,
2013-01-30 03:13:00,47.1,46.0,29.15,South,181,2.9,2.9,96,0.00,,---,0.00,VWS V14.01,2013-01-30 08:13:00,
2013-01-30 03:15:00,47.7,46.6,29.15,SSE,163,2.9,2.9,96,0.00,,---,0.00,VWS V14.01,2013-01-30 08:15:00,
2013-01-30 03:18:00,47.8,46.8,29.95,South,173,0.0,10.0,96,0.00,,,0.00,meteohub,2013-01-30 08:18:00,
2013-01-30 03:19:00,47.8,46.7,29.15,South,173,4.0,4.0,96,0.00,,---,0.00,VWS V14.01,2013-01-30 08:19:00,
2013-01-30 03:21:00,47.8,46.7,29.15,South,177,4.0,4.0,96,0.00,,---,0.00,VWS V14.01,2013-01-30 08:21:00,
2013-01-30 03:24:00,48.2,47.1,29.15,South,174,4.9,4.9,96,0.00,,---,0.00,VWS V14.01,2013-01-30 08:24:00,
2013-01-30 03:26:00,48.6,47.5,29.14,South,173,4.0,4.9,96,0.00,,---,0.00,VWS V14.01,2013-01-30 08:26:00,
2013-01-30 03:29:00,48.9,47.8,29.14,SSW,210,4.9,4.9,96,0.00,,---,0.00,VWS V14.01,2013-01-30 08:29:00,
2013-01-30 03:31:00,48.9,47.8,29.14,SE,129,4.9,4.9,96,0.00,,---,0.00,VWS V14.01,2013-01-30 08:31:00,
2013-01-30 03:34:00,48.9,47.8,29.13,SSW,196,4.9,4.9,96,0.00,,---,0.00,VWS V14.01,2013-01-30 08:34:00,
2013-01-30 03:36:00,48.9,47.8,29.13,South,186,6.0,6.0,96,0.00,,---,0.00,VWS V14.01,2013-01-30 08:36:00,
2013-01-30 03:39:00,49.3,48.2,29.13,SSE,153,6.9,6.9,96,0.00,,---,0.00,VWS V14.01,2013-01-30 08:39:00,
2013-01-30 03:40:00,49.3,48.2,29.13,SSE,153,6.9,6.9,96,0.00,,---,0.00,VWS V14.01,2013-01-30 08:40:00,
2013-01-30 03:41:00,49.3,48.2,29.12,SSE,168,6.0,6.9,96,0.00,,---,0.00,VWS V14.01,2013-01-30 08:41:00,
2013-01-30 03:44:00,48.9,47.5,29.13,South,191,6.0,6.9,95,0.00,,---,0.00,VWS V14.01,2013-01-30 08:44:00,
2013-01-30 03:45:00,48.9,47.5,29.13,South,191,6.0,6.9,95,0.00,,---,0.00,VWS V14.01,2013-01-30 08:45:00,
2013-01-30 03:47:00,48.7,47.3,29.13,SE,142,6.0,6.0,95,0.00,,---,0.00,VWS V14.01,2013-01-30 08:47:00,
2013-01-30 03:49:00,48.7,47.3,29.13,SSW,192,6.0,6.0,95,0.00,,---,0.00,VWS V14.01,2013-01-30 08:49:00,
2013-01-30 03:50:00,48.7,47.3,29.13,SSW,192,6.0,6.0,95,0.00,,---,0.00,VWS V14.01,2013-01-30 08:50:00,
2013-01-30 03:52:00,48.7,47.3,29.13,SW,221,6.0,6.0,95,0.00,,---,0.00,VWS V14.01,2013-01-30 08:52:00,
2013-01-30 03:54:00,48.9,47.5,29.13,SE,143,6.0,6.0,95,0.00,,---,0.00,VWS V14.01,2013-01-30 08:54:00,
2013-01-30 03:55:00,48.9,47.5,29.13,SE,143,6.0,6.0,95,0.00,,---,0.00,VWS V14.01,2013-01-30 08:55:00,
2013-01-30 03:58:00,49.1,47.7,29.12,South,176,6.0,6.0,95,0.00,,---,0.00,VWS V14.01,2013-01-30 08:58:00,
2013-01-30 04:00:00,49.3,47.8,29.92,SW,224,6.0,19.0,95,0.00,,,0.00,meteohub,2013-01-30 09:00:00,
2013-01-30 04:02:00,49.3,47.9,29.13,SSE,160,6.0,6.0,95,0.00,,---,0.00,VWS V14.01,2013-01-30 09:02:00,
2013-01-30 04:03:00,49.1,47.7,29.12,SE,134,6.0,6.0,95,0.00,,---,0.00,VWS V14.01,2013-01-30 09:03:00,
2013-01-30 04:07:00,48.9,47.5,29.92,SE,140,7.0,19.0,95,0.00,,,0.00,meteohub,2013-01-30 09:07:00,
2013-01-30 04:08:00,48.9,47.5,29.12,SSW,213,6.0,6.0,95,0.00,,---,0.00,VWS V14.01,2013-01-30 09:08:00,
2013-01-30 04:12:00,48.7,47.3,29.12,ESE,113,4.9,6.0,95,0.00,,---,0.00,VWS V14.01,2013-01-30 09:12:00,
2013-01-30 04:13:00,48.7,47.3,29.12,SSE,161,4.9,6.0,95,0.00,,---,0.00,VWS V14.01,2013-01-30 09:13:00,
2013-01-30 04:17:00,48.7,47.3,29.12,West,260,4.0,4.0,95,0.00,,---,0.00,VWS V14.01,2013-01-30 09:17:00,
2013-01-30 04:18:00,48.7,47.3,29.12,SSE,151,4.0,4.0,95,0.00,,---,0.00,VWS V14.01,2013-01-30 09:18:00,
2013-01-30 04:22:00,48.4,46.8,29.12,South,183,4.0,4.9,94,0.00,,---,0.00,VWS V14.01,2013-01-30 09:22:00,
2013-01-30 04:23:00,48.4,46.8,29.12,SE,144,4.0,4.9,94,0.00,,---,0.00,VWS V14.01,2013-01-30 09:23:00,
2013-01-30 04:27:00,48.4,47.0,29.12,SE,140,4.0,4.9,95,0.00,,---,0.00,VWS V14.01,2013-01-30 09:27:00,
2013-01-30 04:28:00,48.4,47.0,29.12,South,171,4.0,4.9,95,0.00,,---,0.00,VWS V14.01,2013-01-30 09:28:00,
2013-01-30 04:32:00,48.4,47.0,29.13,South,173,4.0,4.0,95,0.00,,---,0.00,VWS V14.01,2013-01-30 09:32:00,
2013-01-30 04:33:00,48.4,47.0,29.12,South,186,4.9,4.9,95,0.00,,---,0.00,VWS V14.01,2013-01-30 09:33:00,
2013-01-30 04:37:00,48.6,47.2,29.12,SSE,151,6.0,6.0,95,0.00,,---,0.00,VWS V14.01,2013-01-30 09:37:00,
2013-01-30 04:38:00,48.6,47.2,29.13,SW,223,4.9,6.0,95,0.00,,---,0.00,VWS V14.01,2013-01-30 09:38:00,
2013-01-30 04:43:00,48.9,47.5,29.92,SSW,202,6.0,15.0,95,0.00,,,0.00,meteohub,2013-01-30 09:43:00,
2013-01-30 04:44:00,48.9,47.5,29.12,South,173,4.9,4.9,95,0.00,,---,0.00,VWS V14.01,2013-01-30 09:44:00,
2013-01-30 04:49:00,48.7,47.3,29.12,WSW,240,4.9,4.9,95,0.00,,---,0.00,VWS V14.01,2013-01-30 09:49:00,
2013-01-30 04:54:00,48.4,47.0,29.12,South,191,4.0,4.9,95,0.00,,---,0.00,VWS V14.01,2013-01-30 09:54:00,
2013-01-30 04:55:00,48.4,47.0,29.12,SSW,209,4.0,4.9,95,0.00,,---,0.00,VWS V14.01,2013-01-30 09:55:00,
2013-01-30 04:59:00,48.7,47.3,29.12,WSW,237,4.9,4.9,95,0.00,,---,0.00,VWS V14.01,2013-01-30 09:59:00,
2013-01-30 05:00:00,48.7,47.3,29.12,WSW,237,4.9,4.9,95,0.00,,---,0.00,VWS V14.01,2013-01-30 10:00:00,
2013-01-30 05:04:00,48.6,47.2,29.11,SSW,196,6.9,6.9,95,0.00,,---,0.00,VWS V14.01,2013-01-30 10:04:00,
2013-01-30 05:05:00,48.6,47.2,29.11,SSW,209,6.9,6.9,95,0.00,,---,0.00,VWS V14.01,2013-01-30 10:05:00,
2013-01-30 05:09:00,48.7,47.3,29.11,SSW,202,6.9,6.9,95,0.00,,---,0.00,VWS V14.01,2013-01-30 10:09:00,
2013-01-30 05:10:00,48.6,47.2,29.10,SSE,168,6.9,6.9,95,0.00,,---,0.00,VWS V14.01,2013-01-30 10:10:00,
2013-01-30 05:13:00,48.7,47.3,29.10,SSW,202,6.0,6.0,95,0.00,,---,0.00,VWS V14.01,2013-01-30 10:13:00,
2013-01-30 05:14:00,48.7,47.3,29.10,SE,129,6.0,6.0,95,0.00,,---,0.00,VWS V14.01,2013-01-30 10:14:00,
2013-01-30 05:15:00,48.9,47.5,29.10,South,176,6.0,6.0,95,0.00,,---,0.00,VWS V14.01,2013-01-30 10:15:00,
2013-01-30 05:18:00,49.3,48.2,29.10,South,175,6.0,6.0,96,0.00,,---,0.00,VWS V14.01,2013-01-30 10:18:00,
2013-01-30 05:19:00,49.3,47.9,29.10,SSW,205,6.9,6.9,95,0.00,,---,0.00,VWS V14.01,2013-01-30 10:19:00,
2013-01-30 05:20:00,49.1,47.7,29.10,SSE,154,6.0,6.9,95,0.00,,---,0.00,VWS V14.01,2013-01-30 10:20:00,
2013-01-30 05:23:00,49.1,47.7,29.10,SSW,207,6.9,6.9,95,0.00,,---,0.00,VWS V14.01,2013-01-30 10:23:00,
2013-01-30 05:24:00,49.1,47.7,29.10,SSW,207,6.9,6.9,95,0.00,,---,0.00,VWS V14.01,2013-01-30 10:24:00,
2013-01-30 05:27:00,49.5,48.4,29.10,South,191,6.9,6.9,96,0.00,,---,0.00,VWS V14.01,2013-01-30 10:27:00,
2013-01-30 05:28:00,49.6,48.5,29.10,South,171,6.9,6.9,96,0.00,,---,0.00,VWS V14.01,2013-01-30 10:28:00,
2013-01-30 05:29:00,49.6,48.5,29.10,SW,235,6.9,6.9,96,0.00,,---,0.00,VWS V14.01,2013-01-30 10:29:00,
2013-01-30 05:32:00,50.2,49.1,29.10,SSW,206,8.9,8.9,96,0.00,,---,0.00,VWS V14.01,2013-01-30 10:32:00,
2013-01-30 05:34:00,50.5,49.4,29.10,SSW,200,8.9,8.9,96,0.00,,---,0.00,VWS V14.01,2013-01-30 10:34:00,
2013-01-30 05:37:00,50.5,49.4,29.10,South,185,8.9,8.9,96,0.00,,---,0.00,VWS V14.01,2013-01-30 10:37:00,
2013-01-30 05:41:00,50.2,48.8,29.10,SSW,195,8.1,8.1,95,0.00,,---,0.00,VWS V14.01,2013-01-30 10:41:00,
2013-01-30 05:42:00,50.2,48.8,29.10,SW,219,6.9,8.1,95,0.00,,---,0.00,VWS V14.01,2013-01-30 10:42:00,
2013-01-30 05:46:00,50.2,48.8,29.10,South,188,4.9,8.1,95,0.00,,---,0.00,VWS V14.01,2013-01-30 10:46:00,
2013-01-30 05:47:00,50.2,48.8,29.10,SSW,198,4.9,8.1,95,0.00,,---,0.00,VWS V14.01,2013-01-30 10:47:00,
2013-01-30 05:51:00,50.4,49.3,29.10,SSW,196,2.9,8.1,96,0.00,,---,0.00,VWS V14.01,2013-01-30 10:51:00,
2013-01-30 05:52:00,50.4,49.3,29.10,SW,232,2.9,8.1,96,0.00,,---,0.00,VWS V14.01,2013-01-30 10:52:00,
2013-01-30 05:56:00,50.4,49.3,29.10,SSW,194,2.0,2.0,96,0.00,,---,0.00,VWS V14.01,2013-01-30 10:56:00,
2013-01-30 05:57:00,50.5,49.4,29.10,South,178,2.0,2.0,96,0.00,,---,0.00,VWS V14.01,2013-01-30 10:57:00,
2013-01-30 06:01:00,50.5,49.4,29.10,SW,232,2.9,2.9,96,0.00,,---,0.00,VWS V14.01,2013-01-30 11:01:00,
2013-01-30 06:02:00,50.7,49.6,29.09,SW,232,2.9,2.9,96,0.00,,---,0.00,VWS V14.01,2013-01-30 11:02:00,
2013-01-30 06:06:00,50.9,49.8,29.09,SW,226,2.9,2.9,96,0.00,,---,0.00,VWS V14.01,2013-01-30 11:06:00,
2013-01-30 06:09:00,51.1,50.0,29.09,WNW,289,2.0,2.0,96,0.00,,---,0.00,VWS V14.01,2013-01-30 11:09:00,
2013-01-30 06:11:00,51.1,50.0,29.09,WNW,289,0.9,2.0,96,0.00,,---,0.00,VWS V14.01,2013-01-30 11:11:00,
2013-01-30 06:12:00,51.1,50.0,29.09,WNW,289,0.9,2.0,96,0.00,,---,0.00,VWS V14.01,2013-01-30 11:12:00,
2013-01-30 06:13:00,51.1,50.0,29.89,WNW,289,1.0,7.0,96,0.00,,,0.00,meteohub,2013-01-30 11:13:00,
2013-01-30 06:14:00,51.1,50.0,29.09,WNW,289,0.9,2.0,96,0.00,,---,0.00,VWS V14.01,2013-01-30 11:14:00,
2013-01-30 06:16:00,51.1,50.0,29.08,WNW,289,0.9,2.0,96,0.00,,---,0.00,VWS V14.01,2013-01-30 11:16:00,
2013-01-30 06:17:00,51.1,50.0,29.09,South,178,0.9,2.0,96,0.00,,---,0.00,VWS V14.01,2013-01-30 11:17:00,
2013-01-30 06:19:00,51.1,49.7,29.08,South,178,0.9,2.0,95,0.00,,---,0.00,VWS V14.01,2013-01-30 11:19:00,
2013-01-30 06:23:00,50.9,49.5,29.08,South,178,0.0,0.0,95,0.00,,---,0.00,VWS V14.01,2013-01-30 11:23:00,
2013-01-30 06:24:00,50.9,49.5,29.08,South,178,0.0,0.0,95,0.00,,---,0.00,VWS V14.01,2013-01-30 11:24:00,
2013-01-30 06:28:00,50.9,49.5,29.08,South,178,0.0,0.0,95,0.00,,---,0.00,VWS V14.01,2013-01-30 11:28:00,
2013-01-30 06:29:00,50.9,49.5,29.08,South,178,0.0,0.0,95,0.00,,---,0.00,VWS V14.01,2013-01-30 11:29:00,
2013-01-30 06:34:00,50.7,49.3,29.07,South,178,0.0,0.0,95,0.00,,---,0.00,VWS V14.01,2013-01-30 11:34:00,
2013-01-30 06:39:00,50.7,49.3,29.07,South,178,0.0,0.0,95,0.00,,---,0.00,VWS V14.01,2013-01-30 11:39:00,
2013-01-30 06:44:00,50.4,49.0,29.07,North,355,0.9,0.9,95,0.00,,---,0.00,VWS V14.01,2013-01-30 11:44:00,
2013-01-30 06:49:00,50.2,48.8,29.07,NE,49,0.9,0.9,95,0.00,,---,0.00,VWS V14.01,2013-01-30 11:49:00,
2013-01-30 06:51:00,50.2,48.7,29.87,SE,136,3.0,4.0,95,0.00,,,0.00,meteohub,2013-01-30 11:51:00,
2013-01-30 06:54:00,50.4,49.0,29.07,NNW,331,0.9,0.9,95,0.00,,---,0.00,VWS V14.01,2013-01-30 11:54:00,
2013-01-30 06:56:00,50.5,49.4,29.08,NNW,331,0.9,0.9,96,0.00,,---,0.00,VWS V14.01,2013-01-30 11:56:00,
2013-01-30 06:57:00,50.5,49.4,29.08,NNW,331,0.9,0.9,96,0.00,,---,0.00,VWS V14.01,2013-01-30 11:57:00,
2013-01-30 06:59:00,50.5,49.4,29.07,NNW,331,0.9,0.9,96,0.00,,---,0.00,VWS V14.01,2013-01-30 11:59:00,
2013-01-30 07:01:00,50.9,49.8,29.07,East,99,0.9,0.9,96,0.00,,---,0.00,VWS V14.01,2013-01-30 12:01:00,
2013-01-30 07:02:00,50.9,49.8,29.07,East,99,0.9,0.9,96,0.00,,---,0.00,VWS V14.01,2013-01-30 12:02:00,
2013-01-30 07:05:00,51.1,50.0,29.07,SSW,211,0.9,0.9,96,0.00,,---,0.00,VWS V14.01,2013-01-30 12:05:00,
2013-01-30 07:06:00,51.1,50.0,29.06,ENE,61,0.9,0.9,96,0.00,,---,0.00,VWS V14.01,2013-01-30 12:06:00,
2013-01-30 07:07:00,51.3,50.2,29.07,ENE,61,0.9,0.9,96,0.00,,---,0.00,VWS V14.01,2013-01-30 12:07:00,
2013-01-30 07:10:00,51.3,50.2,29.06,ENE,61,0.9,0.9,96,0.00,,---,0.00,VWS V14.01,2013-01-30 12:10:00,
2013-01-30 07:11:00,51.4,50.3,29.07,ENE,61,0.9,0.9,96,0.00,,---,0.00,VWS V14.01,2013-01-30 12:11:00,
2013-01-30 07:12:00,51.4,50.3,29.07,ENE,61,0.9,0.9,96,0.00,,---,0.00,VWS V14.01,2013-01-30 12:12:00,
2013-01-30 07:15:00,51.6,50.5,29.07,NNE,28,0.9,0.9,96,0.00,,---,0.00,VWS V14.01,2013-01-30 12:15:00,
2013-01-30 07:16:00,51.6,50.5,29.07,NNE,28,0.9,0.9,96,0.00,,---,0.00,VWS V14.01,2013-01-30 12:16:00,
2013-01-30 07:17:00,51.6,50.5,29.07,NNE,28,0.9,0.9,96,0.00,,---,0.00,VWS V14.01,2013-01-30 12:17:00,
2013-01-30 07:19:00,51.8,50.7,29.07,NNE,28,0.9,0.9,96,0.00,,---,0.00,VWS V14.01,2013-01-30 12:19:00,
2013-01-30 07:20:00,51.8,50.7,29.07,NNE,28,0.9,0.9,96,0.00,,---,0.00,VWS V14.01,2013-01-30 12:20:00,
2013-01-30 07:21:00,51.6,50.5,29.07,NNE,28,0.9,0.9,96,0.00,,---,0.00,VWS V14.01,2013-01-30 12:21:00,
2013-01-30 07:22:00,51.6,50.5,29.07,NNE,28,0.9,0.9,96,0.00,,---,0.00,VWS V14.01,2013-01-30 12:22:00,
2013-01-30 07:24:00,51.8,50.7,29.07,NNE,28,0.9,0.9,96,0.00,,---,0.00,VWS V14.01,2013-01-30 12:24:00,
2013-01-30 07:26:00,51.8,50.7,29.07,NNE,28,0.9,0.9,96,0.00,,---,0.00,VWS V14.01,2013-01-30 12:26:00,
2013-01-30 07:27:00,51.8,50.7,29.07,NNE,28,0.0,0.9,96,0.00,,---,0.00,VWS V14.01,2013-01-30 12:27:00,
2013-01-30 07:30:00,51.6,50.5,29.07,NNE,28,0.0,0.0,96,0.00,,---,0.00,VWS V14.01,2013-01-30 12:30:00,
2013-01-30 07:31:00,51.6,50.5,29.07,NNE,28,0.0,0.0,96,0.00,,---,0.00,VWS V14.01,2013-01-30 12:31:00,
2013-01-30 07:34:00,51.6,50.5,29.07,North,0,0.0,0.0,96,0.00,,---,0.00,VWS V14.01,2013-01-30 12:34:00,
2013-01-30 07:35:00,51.6,50.5,29.07,North,0,0.9,0.9,96,0.00,,---,0.00,VWS V14.01,2013-01-30 12:35:00,
2013-01-30 07:36:00,51.6,50.5,29.07,North,0,0.9,0.9,96,0.00,,---,0.00,VWS V14.01,2013-01-30 12:36:00,
2013-01-30 07:39:00,51.4,50.3,29.07,ENE,61,0.9,0.9,96,0.00,,---,0.00,VWS V14.01,2013-01-30 12:39:00,
2013-01-30 07:40:00,51.4,50.3,29.07,ENE,61,0.9,0.9,96,0.00,,---,0.00,VWS V14.01,2013-01-30 12:40:00,
2013-01-30 07:41:00,51.4,50.3,29.06,ENE,61,0.9,0.9,96,0.00,,---,0.00,VWS V14.01,2013-01-30 12:41:00,
2013-01-30 07:44:00,51.1,49.7,29.06,ENE,61,0.9,0.9,95,0.00,,---,0.00,VWS V14.01,2013-01-30 12:44:00,
2013-01-30 07:45:00,50.7,49.3,29.06,ENE,61,0.9,0.9,95,0.00,,---,0.00,VWS V14.01,2013-01-30 12:45:00,
2013-01-30 07:47:00,50.4,48.7,29.06,ENE,61,0.9,0.9,94,0.00,,---,0.00,VWS V14.01,2013-01-30 12:47:00,
2013-01-30 07:49:00,50.2,48.5,29.06,ENE,61,0.9,0.9,94,0.00,,---,0.00,VWS V14.01,2013-01-30 12:49:00,
2013-01-30 07:50:00,50.0,48.3,29.06,ENE,61,0.9,0.9,94,0.00,,---,0.00,VWS V14.01,2013-01-30 12:50:00,
2013-01-30 07:52:00,49.5,47.8,29.06,ENE,61,0.9,0.9,94,0.00,,---,0.00,VWS V14.01,2013-01-30 12:52:00,
2013-01-30 07:54:00,49.3,47.7,29.06,ENE,61,0.9,0.9,94,0.00,,---,0.00,VWS V14.01,2013-01-30 12:54:00,
2013-01-30 07:55:00,49.1,47.5,29.06,ENE,61,0.9,0.9,94,0.00,,---,0.00,VWS V14.01,2013-01-30 12:55:00,
2013-01-30 07:58:00,48.7,47.0,29.05,NNE,13,0.9,0.9,94,0.00,,---,0.00,VWS V14.01,2013-01-30 12:58:00,
2013-01-30 07:59:00,48.6,47.0,29.06,NNE,13,0.9,0.9,94,0.00,,---,0.00,VWS V14.01,2013-01-30 12:59:00,
2013-01-30 08:00:00,48.6,47.0,29.05,NNE,13,0.9,0.9,94,0.00,,---,0.00,VWS V14.01,2013-01-30 13:00:00,
2013-01-30 08:03:00,48.4,46.8,29.05,East,94,0.9,0.9,94,0.00,,---,0.00,VWS V14.01,2013-01-30 13:03:00,
2013-01-30 08:04:00,48.4,46.8,29.05,East,94,0.9,0.9,94,0.00,,---,0.00,VWS V14.01,2013-01-30 13:04:00,
2013-01-30 08:05:00,48.4,46.8,29.05,East,94,0.9,0.9,94,0.00,,---,0.00,VWS V14.01,2013-01-30 13:05:00,
2013-01-30 08:08:00,48.4,47.0,29.05,South,190,0.9,0.9,95,0.00,,---,0.00,VWS V14.01,2013-01-30 13:08:00,
2013-01-30 08:09:00,48.4,47.0,29.05,South,190,0.9,0.9,95,0.00,,---,0.00,VWS V14.01,2013-01-30 13:09:00,
2013-01-30 08:10:00,48.4,47.0,29.05,South,190,0.9,0.9,95,0.00,,---,0.00,VWS V14.01,2013-01-30 13:10:00,
2013-01-30 08:13:00,48.9,47.8,29.05,SE,130,0.9,0.9,96,0.00,,---,0.00,VWS V14.01,2013-01-30 13:13:00,
2013-01-30 08:14:00,48.9,47.8,29.05,SE,130,0.9,0.9,96,0.00,,---,0.00,VWS V14.01,2013-01-30 13:14:00,
2013-01-30 08:15:00,49.3,48.2,29.05,South,188,0.9,0.9,96,0.00,,---,0.00,VWS V14.01,2013-01-30 13:15:00,
2013-01-30 08:18:00,50.4,49.6,29.05,SSW,207,2.0,2.0,97,0.00,,---,0.00,VWS V14.01,2013-01-30 13:18:00,
2013-01-30 08:19:00,50.4,49.6,29.05,SSW,207,2.0,2.0,97,0.00,,---,0.00,VWS V14.01,2013-01-30 13:19:00,
2013-01-30 08:20:00,50.5,49.7,29.05,SSE,150,2.0,2.0,97,0.00,,---,0.00,VWS V14.01,2013-01-30 13:20:00,
2013-01-30 08:23:00,51.4,50.6,29.05,SSW,196,2.0,2.0,97,0.00,,---,0.00,VWS V14.01,2013-01-30 13:23:00,
2013-01-30 08:24:00,51.6,50.8,29.05,SSE,148,2.0,2.0,97,0.00,,---,0.00,VWS V14.01,2013-01-30 13:24:00,
2013-01-30 08:25:00,51.8,51.0,29.06,SSE,159,2.0,2.0,97,0.00,,---,0.00,VWS V14.01,2013-01-30 13:25:00,
2013-01-30 08:28:00,52.9,52.1,29.05,SSW,213,2.9,2.9,97,0.00,,---,0.00,VWS V14.01,2013-01-30 13:28:00,
2013-01-30 08:29:00,52.9,52.1,29.05,SSW,213,2.9,2.9,97,0.00,,---,0.00,VWS V14.01,2013-01-30 13:29:00,
2013-01-30 08:30:00,53.1,52.3,29.05,SW,223,2.9,2.9,97,0.00,,---,0.00,VWS V14.01,2013-01-30 13:30:00,
2013-01-30 08:33:00,53.4,52.6,29.05,SSW,213,4.0,4.0,97,0.00,,---,0.00,VWS V14.01,2013-01-30 13:33:00,
2013-01-30 08:35:00,53.8,52.9,29.85,South,185,5.0,13.0,97,0.00,,,0.00,meteohub,2013-01-30 13:35:00,
2013-01-30 08:37:00,53.8,53.0,29.04,SE,139,4.9,4.9,97,0.00,,---,0.00,VWS V14.01,2013-01-30 13:37:00,
2013-01-30 08:38:00,54.1,53.3,29.05,SSE,165,6.0,6.0,97,0.00,,---,0.00,VWS V14.01,2013-01-30 13:38:00,
2013-01-30 08:42:00,54.3,53.5,29.04,SW,219,6.0,6.0,97,0.00,,---,0.00,VWS V14.01,2013-01-30 13:42:00,
2013-01-30 08:44:00,54.3,53.5,29.04,WSW,239,6.9,6.9,97,0.00,,---,0.00,VWS V14.01,2013-01-30 13:44:00,
2013-01-30 08:47:00,54.5,53.7,29.03,SSE,159,6.9,6.9,97,0.00,,---,0.00,VWS V14.01,2013-01-30 13:47:00,
2013-01-30 08:50:00,54.7,53.9,29.04,South,186,8.1,8.1,97,0.00,,---,0.00,VWS V14.01,2013-01-30 13:50:00,
2013-01-30 08:52:00,54.7,53.9,29.03,SE,128,8.9,8.9,97,0.00,,---,0.00,VWS V14.01,2013-01-30 13:52:00,
2013-01-30 08:55:00,54.9,53.8,29.03,South,188,8.1,8.9,96,0.00,,---,0.00,VWS V14.01,2013-01-30 13:55:00,
2013-01-30 08:57:00,54.9,53.8,29.03,SSW,194,8.9,8.9,96,0.00,,---,0.00,VWS V14.01,2013-01-30 13:57:00,
2013-01-30 09:00:00,54.9,53.8,29.03,South,182,8.9,8.9,96,0.00,,---,0.00,VWS V14.01,2013-01-30 14:00:00,
2013-01-30 09:02:00,55.0,53.9,29.02,SSW,209,8.9,8.9,96,0.00,,---,0.00,VWS V14.01,2013-01-30 14:02:00,
2013-01-30 09:04:00,55.0,53.9,29.02,SSW,212,8.9,8.9,96,0.00,,---,0.00,VWS V14.01,2013-01-30 14:04:00,
2013-01-30 09:05:00,55.0,53.9,29.02,South,180,8.9,8.9,96,0.00,,---,0.00,VWS V14.01,2013-01-30 14:05:00,
2013-01-30 09:07:00,55.0,53.9,29.02,SSW,193,8.1,8.9,96,0.00,,---,0.00,VWS V14.01,2013-01-30 14:07:00,
2013-01-30 09:09:00,55.2,54.1,29.01,SE,145,8.1,8.9,96,0.00,,---,0.00,VWS V14.01,2013-01-30 14:09:00,
2013-01-30 09:10:00,55.2,54.1,29.01,SE,145,8.1,8.9,96,0.00,,---,0.00,VWS V14.01,2013-01-30 14:10:00,
2013-01-30 09:12:00,55.4,54.3,29.01,SW,225,8.1,8.9,96,0.00,,---,0.00,VWS V14.01,2013-01-30 14:12:00,
2013-01-30 09:14:00,55.6,54.5,29.01,SSE,163,6.9,8.9,96,0.00,,---,0.00,VWS V14.01,2013-01-30 14:14:00,
2013-01-30 09:15:00,55.6,54.5,29.01,SSE,163,6.9,8.9,96,0.00,,---,0.00,VWS V14.01,2013-01-30 14:15:00,
2013-01-30 09:16:00,55.6,54.5,29.01,South,173,6.9,8.9,96,0.00,,---,0.00,VWS V14.01,2013-01-30 14:16:00,
2013-01-30 09:19:00,55.6,54.5,29.01,South,189,8.1,8.1,96,0.00,,---,0.00,VWS V14.01,2013-01-30 14:19:00,
2013-01-30 09:20:00,55.6,54.5,29.00,SW,225,8.1,8.1,96,0.00,,---,0.00,VWS V14.01,2013-01-30 14:20:00,
2013-01-30 09:21:00,55.8,54.7,29.01,SSW,210,6.9,8.1,96,0.00,,---,0.00,VWS V14.01,2013-01-30 14:21:00,
2013-01-30 09:24:00,55.8,54.4,29.01,SSW,197,6.9,8.1,95,0.00,,---,0.00,VWS V14.01,2013-01-30 14:24:00,
2013-01-30 09:25:00,55.8,54.4,29.01,SW,232,8.1,8.1,95,0.00,,---,0.00,VWS V14.01,2013-01-30 14:25:00,
2013-01-30 09:26:00,55.8,54.4,29.01,SSW,213,8.1,8.1,95,0.00,,---,0.00,VWS V14.01,2013-01-30 14:26:00,
2013-01-30 09:29:00,55.8,54.7,29.01,South,173,6.9,8.1,96,0.00,,---,0.00,VWS V14.01,2013-01-30 14:29:00,
2013-01-30 09:30:00,55.8,54.4,29.01,South,190,6.9,6.9,95,0.00,,---,0.00,VWS V14.01,2013-01-30 14:30:00,
2013-01-30 09:31:00,55.8,54.4,29.01,West,259,6.9,6.9,95,0.00,,---,0.00,VWS V14.01,2013-01-30 14:31:00,
2013-01-30 09:34:00,55.9,54.5,29.02,SW,219,6.0,6.9,95,0.00,,---,0.00,VWS V14.01,2013-01-30 14:34:00,
2013-01-30 09:35:00,55.9,54.5,29.02,SSW,207,6.0,6.9,95,0.00,,---,0.00,VWS V14.01,2013-01-30 14:35:00,
2013-01-30 09:36:00,55.8,54.4,29.02,SW,236,6.0,6.9,95,0.00,,---,0.00,VWS V14.01,2013-01-30 14:36:00,
2013-01-30 09:39:00,55.9,54.5,29.01,South,176,6.0,6.9,95,0.00,,---,0.00,VWS V14.01,2013-01-30 14:39:00,
2013-01-30 09:40:00,55.9,54.5,29.01,SW,218,6.0,6.9,95,0.00,,---,0.00,VWS V14.01,2013-01-30 14:40:00,
2013-01-30 09:41:00,55.9,54.5,29.01,South,181,6.0,6.9,95,0.00,,---,0.00,VWS V14.01,2013-01-30 14:41:00,
2013-01-30 09:45:00,55.9,54.5,29.01,SSW,202,6.0,6.0,95,0.00,,---,0.00,VWS V14.01,2013-01-30 14:45:00,
2013-01-30 09:46:00,55.9,54.5,29.01,SW,227,6.0,6.0,95,0.00,,---,0.00,VWS V14.01,2013-01-30 14:46:00,
2013-01-30 09:50:00,56.1,54.7,29.01,SSW,202,6.9,6.9,95,0.00,,---,0.00,VWS V14.01,2013-01-30 14:50:00,
2013-01-30 09:51:00,56.1,54.7,29.01,SW,234,6.9,6.9,95,0.00,,---,0.00,VWS V14.01,2013-01-30 14:51:00,
2013-01-30 09:55:00,56.1,54.7,29.01,SW,229,6.9,8.1,95,0.00,,---,0.00,VWS V14.01,2013-01-30 14:55:00,
2013-01-30 09:56:00,56.1,54.7,29.00,South,176,6.9,8.1,95,0.00,,---,0.00,VWS V14.01,2013-01-30 14:56:00,
2013-01-30 10:00:00,56.1,54.7,29.00,SSE,155,6.9,6.9,95,0.00,,---,0.00,VWS V14.01,2013-01-30 15:00:00,
2013-01-30 10:01:00,56.1,54.7,29.00,South,188,6.9,6.9,95,0.00,,---,0.00,VWS V14.01,2013-01-30 15:01:00,
2013-01-30 10:05:00,56.1,54.7,29.00,South,171,8.1,8.1,95,0.00,,---,0.00,VWS V14.01,2013-01-30 15:05:00,
2013-01-30 10:06:00,56.1,54.7,29.00,WSW,247,8.1,8.1,95,0.00,,---,0.00,VWS V14.01,2013-01-30 15:06:00,
2013-01-30 10:10:00,56.1,54.7,29.00,SW,236,6.9,8.1,95,0.00,,---,0.00,VWS V14.01,2013-01-30 15:10:00,
2013-01-30 10:11:00,56.1,54.7,29.00,South,185,8.1,8.1,95,0.00,,---,0.00,VWS V14.01,2013-01-30 15:11:00,
2013-01-30 10:15:00,56.1,54.7,29.00,SSW,205,6.9,6.9,95,0.00,,---,0.00,VWS V14.01,2013-01-30 15:15:00,
2013-01-30 10:16:00,56.3,54.9,29.00,SW,217,6.9,6.9,95,0.00,,---,0.00,VWS V14.01,2013-01-30 15:16:00,
2013-01-30 10:20:00,56.5,55.1,28.99,SSW,192,6.9,6.9,95,0.00,,---,0.00,VWS V14.01,2013-01-30 15:20:00,
2013-01-30 10:22:00,56.5,55.1,28.99,SW,232,6.9,6.9,95,0.00,,---,0.00,VWS V14.01,2013-01-30 15:22:00,
2013-01-30 10:25:00,56.7,55.6,28.99,SSW,205,6.9,6.9,96,0.00,,---,0.00,VWS V14.01,2013-01-30 15:25:00,
2013-01-30 10:26:00,56.8,55.7,28.99,SSW,199,8.1,8.1,96,0.00,,---,0.00,VWS V14.01,2013-01-30 15:26:00,
2013-01-30 10:29:00,56.8,55.7,28.99,SW,216,6.9,6.9,96,0.00,,---,0.00,VWS V14.01,2013-01-30 15:29:00,
2013-01-30 10:30:00,57.0,55.9,28.99,SSW,198,8.1,8.1,96,0.00,,---,0.00,VWS V14.01,2013-01-30 15:30:00,
2013-01-30 10:31:00,57.0,55.9,28.99,SSW,198,8.1,8.1,96,0.00,,---,0.00,VWS V14.01,2013-01-30 15:31:00,
2013-01-30 10:34:00,57.2,56.1,28.98,SSW,210,8.1,8.1,96,0.00,,---,0.00,VWS V14.01,2013-01-30 15:34:00,
2013-01-30 10:35:00,57.4,56.3,28.98,WSW,242,8.1,8.1,96,0.00,,---,0.00,VWS V14.01,2013-01-30 15:35:00,
2013-01-30 10:36:00,57.4,56.3,28.98,WSW,242,8.1,8.1,96,0.00,,---,0.00,VWS V14.01,2013-01-30 15:36:00,
2013-01-30 10:39:00,57.4,56.3,28.99,SSW,198,8.1,8.1,96,0.00,,---,0.00,VWS V14.01,2013-01-30 15:39:00,
2013-01-30 10:41:00,57.6,56.5,29.78,SW,215,7.0,23.0,96,0.00,,,0.00,meteohub,2013-01-30 15:41:00,
2013-01-30 10:42:00,57.6,56.5,28.98,WNW,298,8.1,8.1,96,0.00,,---,0.00,VWS V14.01,2013-01-30 15:42:00,
2013-01-30 10:43:00,57.6,56.5,28.98,WNW,298,8.1,8.1,96,0.00,,---,0.00,VWS V14.01,2013-01-30 15:43:00,
2013-01-30 10:44:00,57.7,56.6,28.99,SSW,213,8.1,8.1,96,0.00,,---,0.00,VWS V14.01,2013-01-30 15:44:00,
2013-01-30 10:48:00,57.7,56.6,28.98,SSW,207,6.9,8.1,96,0.00,,---,0.00,VWS V14.01,2013-01-30 15:48:00,
2013-01-30 10:49:00,57.9,56.8,28.98,SW,223,6.9,8.1,96,0.00,,---,0.00,VWS V14.01,2013-01-30 15:49:00,
2013-01-30 10:53:00,57.9,56.8,28.97,SW,215,6.9,8.1,96,0.00,,---,0.00,VWS V14.01,2013-01-30 15:53:00,
2013-01-30 10:57:00,58.1,57.0,28.97,SSW,211,6.9,6.9,96,0.00,,---,0.00,VWS V14.01,2013-01-30 15:57:00,
2013-01-30 10:58:00,58.3,56.9,28.97,SSW,211,8.1,8.1,95,0.00,,---,0.00,VWS V14.01,2013-01-30 15:58:00,
2013-01-30 11:02:00,58.5,57.1,28.97,SW,215,8.9,8.9,95,0.00,,---,0.00,VWS V14.01,2013-01-30 16:02:00,
2013-01-30 11:03:00,58.5,57.4,28.97,SW,215,8.9,8.9,96,0.00,,---,0.00,VWS V14.01,2013-01-30 16:03:00,
2013-01-30 11:07:00,58.5,57.1,28.96,South,190,8.9,10.1,95,0.00,,---,0.00,VWS V14.01,2013-01-30 16:07:00,
2013-01-30 11:08:00,58.6,57.2,28.96,SSW,198,8.9,10.1,95,0.00,,---,0.00,VWS V14.01,2013-01-30 16:08:00,
2013-01-30 11:11:00,58.6,57.2,28.96,WNW,293,8.9,8.9,95,0.00,,---,0.00,VWS V14.01,2013-01-30 16:11:00,
2013-01-30 11:12:00,58.6,57.2,28.96,SW,227,8.9,8.9,95,0.00,,---,0.00,VWS V14.01,2013-01-30 16:12:00,
2013-01-30 11:13:00,58.6,57.2,28.96,SSW,200,8.9,8.9,95,0.00,,---,0.00,VWS V14.01,2013-01-30 16:13:00,
2013-01-30 11:16:00,58.8,57.4,28.96,SSW,207,8.1,8.9,95,0.00,,---,0.00,VWS V14.01,2013-01-30 16:16:00,
2013-01-30 11:17:00,58.8,57.4,28.96,SSW,208,8.1,8.9,95,0.00,,---,0.00,VWS V14.01,2013-01-30 16:17:00,
2013-01-30 11:18:00,59.0,57.6,28.96,South,186,8.1,8.9,95,0.00,,---,0.00,VWS V14.01,2013-01-30 16:18:00,
2013-01-30 11:21:00,59.0,57.6,28.96,SSW,205,6.9,8.9,95,0.00,,---,0.00,VWS V14.01,2013-01-30 16:21:00,
2013-01-30 11:22:00,59.0,57.6,28.96,SSW,205,6.0,8.9,95,0.00,,---,0.00,VWS V14.01,2013-01-30 16:22:00,
2013-01-30 11:24:00,59.0,57.6,28.95,SSW,205,6.0,6.0,95,0.00,,---,0.00,VWS V14.01,2013-01-30 16:24:00,
2013-01-30 11:26:00,59.0,57.6,28.95,WSW,238,6.0,6.0,95,0.00,,---,0.00,VWS V14.01,2013-01-30 16:26:00,
2013-01-30 11:27:00,59.0,57.6,28.95,WSW,241,6.0,6.0,95,0.00,,---,0.00,VWS V14.01,2013-01-30 16:27:00,
2013-01-30 11:29:00,59.2,57.8,28.95,South,173,6.9,6.9,95,0.00,,---,0.00,VWS V14.01,2013-01-30 16:29:00,
2013-01-30 11:31:00,59.2,57.8,28.95,SW,219,6.9,6.9,95,0.00,,---,0.00,VWS V14.01,2013-01-30 16:31:00,
2013-01-30 11:32:00,59.2,57.8,28.96,SSW,207,8.1,8.1,95,0.00,,---,0.00,VWS V14.01,2013-01-30 16:32:00,
2013-01-30 11:34:00,59.2,57.5,28.95,WSW,240,8.1,8.1,94,0.00,,---,0.00,VWS V14.01,2013-01-30 16:34:00,
2013-01-30 11:35:00,59.2,57.5,28.95,WSW,240,8.1,8.1,94,0.00,,---,0.00,VWS V14.01,2013-01-30 16:35:00,
2013-01-30 11:36:00,59.4,57.7,28.94,SSE,158,8.1,8.1,94,0.00,,---,0.00,VWS V14.01,2013-01-30 16:36:00,
2013-01-30 11:39:00,59.4,57.7,28.95,SW,222,8.1,8.1,94,0.00,,---,0.00,VWS V14.01,2013-01-30 16:39:00,
2013-01-30 11:40:00,59.4,57.7,28.94,SW,222,6.9,8.1,94,0.00,,---,0.00,VWS V14.01,2013-01-30 16:40:00,
2013-01-30 11:41:00,59.4,57.7,28.95,SW,220,6.0,8.1,94,0.00,,---,0.00,VWS V14.01,2013-01-30 16:41:00,
2013-01-30 11:44:00,59.4,57.7,28.95,WSW,238,6.0,8.1,94,0.00,,---,0.00,VWS V14.01,2013-01-30 16:44:00,
2013-01-30 11:45:00,59.4,57.7,28.95,SSW,192,6.0,8.1,94,0.00,,---,0.00,VWS V14.01,2013-01-30 16:45:00,
2013-01-30 11:46:00,59.4,57.7,28.95,South,190,4.9,8.1,94,0.00,,---,0.00,VWS V14.01,2013-01-30 16:46:00,
2013-01-30 11:49:00,59.5,57.8,28.95,SW,220,6.0,8.1,94,0.00,,---,0.00,VWS V14.01,2013-01-30 16:49:00,
2013-01-30 11:50:00,59.5,57.8,28.94,WSW,252,6.0,8.1,94,0.00,,---,0.00,VWS V14.01,2013-01-30 16:50:00,
2013-01-30 11:51:00,59.5,57.8,28.94,SSW,197,6.9,8.1,94,0.00,,---,0.00,VWS V14.01,2013-01-30 16:51:00,
2013-01-30 11:54:00,59.5,57.8,28.94,SW,214,6.9,8.1,94,0.00,,---,0.00,VWS V14.01,2013-01-30 16:54:00,
2013-01-30 11:55:00,59.5,57.8,28.94,SSW,207,6.9,8.1,94,0.00,,---,0.00,VWS V14.01,2013-01-30 16:55:00,
2013-01-30 11:56:00,59.5,57.8,28.94,West,279,6.9,8.1,94,0.00,,---,0.00,VWS V14.01,2013-01-30 16:56:00,
2013-01-30 11:59:00,59.5,57.8,28.94,SSW,206,6.0,8.1,94,0.00,,---,0.00,VWS V14.01,2013-01-30 16:59:00,
2013-01-30 12:00:00,59.5,57.8,28.93,SSW,195,6.9,8.1,94,0.00,,---,0.00,VWS V14.01,2013-01-30 17:00:00,
2013-01-30 12:01:00,59.5,57.8,28.93,South,182,6.9,6.9,94,0.00,,---,0.00,VWS V14.01,2013-01-30 17:01:00,
2013-01-30 12:04:00,59.5,57.5,28.93,SSW,205,6.9,6.9,93,0.00,,---,0.00,VWS V14.01,2013-01-30 17:04:00,
2013-01-30 12:05:00,59.5,57.5,28.93,SSW,192,6.9,6.9,93,0.00,,---,0.00,VWS V14.01,2013-01-30 17:05:00,
2013-01-30 12:06:00,59.5,57.5,28.92,South,190,6.0,6.9,93,0.00,,---,0.00,VWS V14.01,2013-01-30 17:06:00,
2013-01-30 12:09:00,59.5,57.5,28.92,SSW,206,6.0,6.9,93,0.00,,---,0.00,VWS V14.01,2013-01-30 17:09:00,
2013-01-30 12:10:00,59.5,57.5,28.92,SSE,160,6.0,6.9,93,0.00,,---,0.00,VWS V14.01,2013-01-30 17:10:00,
2013-01-30 12:11:00,59.5,57.5,28.92,SSW,202,4.9,6.9,93,0.00,,---,0.00,VWS V14.01,2013-01-30 17:11:00,
2013-01-30 12:14:00,59.7,57.7,28.92,SW,228,4.0,6.9,93,0.00,,---,0.00,VWS V14.01,2013-01-30 17:14:00,
2013-01-30 12:15:00,59.7,57.7,28.92,SW,228,4.0,6.9,93,0.00,,---,0.00,VWS V14.01,2013-01-30 17:15:00,
2013-01-30 12:16:00,59.7,57.7,28.92,SW,236,4.0,6.9,93,0.00,,---,0.00,VWS V14.01,2013-01-30 17:16:00,
2013-01-30 12:19:00,59.7,57.7,28.92,South,191,4.0,6.9,93,0.00,,---,0.00,VWS V14.01,2013-01-30 17:19:00,
2013-01-30 12:20:00,59.7,57.7,28.92,South,191,4.0,6.9,93,0.00,,---,0.00,VWS V14.01,2013-01-30 17:20:00,
2013-01-30 12:21:00,59.7,57.7,28.92,SW,216,4.0,6.9,93,0.00,,---,0.00,VWS V14.01,2013-01-30 17:21:00,
2013-01-30 12:24:00,59.7,57.7,28.91,SSW,209,4.0,6.9,93,0.00,,---,0.00,VWS V14.01,2013-01-30 17:24:00,
2013-01-30 12:25:00,59.7,57.7,28.91,SSW,209,4.0,6.9,93,0.00,,---,0.00,VWS V14.01,2013-01-30 17:25:00,
2013-01-30 12:26:00,59.7,57.7,28.91,SSW,199,4.0,6.9,93,0.00,,---,0.00,VWS V14.01,2013-01-30 17:26:00,
2013-01-30 12:30:00,59.9,57.9,28.90,South,175,4.0,4.0,93,0.00,,---,0.00,VWS V14.01,2013-01-30 17:30:00,
2013-01-30 12:32:00,60.1,58.1,28.90,SSW,205,6.0,6.0,93,0.00,,---,0.00,VWS V14.01,2013-01-30 17:32:00,
2013-01-30 12:35:00,60.3,58.3,28.90,South,187,6.0,6.0,93,0.00,,---,0.00,VWS V14.01,2013-01-30 17:35:00,
2013-01-30 12:37:00,60.3,58.3,28.90,SSW,210,6.9,6.9,93,0.00,,---,0.00,VWS V14.01,2013-01-30 17:37:00,
2013-01-30 12:40:00,60.3,58.3,28.90,SSW,195,6.9,6.9,93,0.00,,---,0.00,VWS V14.01,2013-01-30 17:40:00,
2013-01-30 12:42:00,60.4,58.4,28.90,SSE,153,6.9,6.9,93,0.00,,---,0.00,VWS V14.01,2013-01-30 17:42:00,
2013-01-30 12:45:00,60.4,58.4,28.89,South,171,6.0,6.9,93,0.00,,---,0.00,VWS V14.01,2013-01-30 17:45:00,
2013-01-30 12:47:00,60.4,58.1,28.89,South,189,6.0,6.9,92,0.00,,---,0.00,VWS V14.01,2013-01-30 17:47:00,
2013-01-30 12:50:00,60.6,58.3,28.89,SW,227,4.9,6.9,92,0.00,,---,0.00,VWS V14.01,2013-01-30 17:50:00,
2013-01-30 12:52:00,60.6,58.3,28.89,SSW,199,4.9,6.9,92,0.00,,---,0.00,VWS V14.01,2013-01-30 17:52:00,
2013-01-30 12:55:00,60.8,58.5,28.89,SSW,212,4.9,6.9,92,0.00,,---,0.00,VWS V14.01,2013-01-30 17:55:00,
2013-01-30 12:56:00,60.8,58.5,28.89,SSE,168,6.0,6.9,92,0.00,,---,0.00,VWS V14.01,2013-01-30 17:56:00,
2013-01-30 12:57:00,61.0,58.7,28.89,West,267,6.0,6.9,92,0.00,,---,0.00,VWS V14.01,2013-01-30 17:57:00,
2013-01-30 13:00:00,61.0,58.7,28.89,South,191,4.9,4.9,92,0.00,,---,0.00,VWS V14.01,2013-01-30 18:00:00,
2013-01-30 13:01:00,61.0,58.7,28.89,SW,229,4.9,4.9,92,0.00,,---,0.00,VWS V14.01,2013-01-30 18:01:00,
2013-01-30 13:02:00,61.2,58.9,28.89,SW,230,4.9,4.9,92,0.00,,---,0.00,VWS V14.01,2013-01-30 18:02:00,
2013-01-30 13:05:00,61.2,58.9,28.88,East,86,4.0,4.9,92,0.00,,---,0.00,VWS V14.01,2013-01-30 18:05:00,
2013-01-30 13:06:00,61.2,58.9,28.88,East,86,4.0,4.9,92,0.00,,---,0.00,VWS V14.01,2013-01-30 18:06:00,
2013-01-30 13:07:00,61.2,58.9,28.88,South,174,4.0,4.9,92,0.00,,---,0.00,VWS V14.01,2013-01-30 18:07:00,
2013-01-30 13:10:00,61.3,58.7,28.88,WSW,247,4.0,4.9,91,0.00,,---,0.00,VWS V14.01,2013-01-30 18:10:00,
2013-01-30 13:11:00,61.3,58.7,28.88,WSW,247,4.0,4.9,91,0.00,,---,0.00,VWS V14.01,2013-01-30 18:11:00,
2013-01-30 13:12:00,61.3,58.7,28.87,SSW,211,4.9,4.9,91,0.00,,---,0.00,VWS V14.01,2013-01-30 18:12:00,
2013-01-30 13:15:00,61.5,58.8,28.87,SW,216,6.9,6.9,91,0.00,,---,0.00,VWS V14.01,2013-01-30 18:15:00,
2013-01-30 13:16:00,61.5,58.8,28.87,SW,216,6.9,6.9,91,0.00,,---,0.00,VWS V14.01,2013-01-30 18:16:00,
2013-01-30 13:17:00,61.5,58.8,28.87,SSW,195,8.1,8.1,91,0.00,,---,0.00,VWS V14.01,2013-01-30 18:17:00,
2013-01-30 13:21:00,61.5,58.8,29.66,South,190,11.0,18.0,91,0.00,,,0.00,meteohub,2013-01-30 18:21:00,
2013-01-30 13:22:00,61.7,59.0,28.86,SSE,158,8.9,8.9,91,0.00,,---,0.00,VWS V14.01,2013-01-30 18:22:00,
2013-01-30 13:26:00,61.7,58.7,28.85,South,191,8.9,8.9,90,0.00,,---,0.00,VWS V14.01,2013-01-30 18:26:00,
2013-01-30 13:27:00,61.7,58.7,28.85,South,191,8.9,8.9,90,0.00,,---,0.00,VWS V14.01,2013-01-30 18:27:00,
2013-01-30 13:31:00,61.7,58.7,28.84,SSW,198,8.9,8.9,90,0.00,,---,0.00,VWS V14.01,2013-01-30 18:31:00,
2013-01-30 13:32:00,61.7,58.7,28.84,SSW,198,8.9,8.9,90,0.00,,---,0.00,VWS V14.01,2013-01-30 18:32:00,
2013-01-30 13:33:00,61.7,58.7,28.85,SSE,157,8.9,8.9,90,0.00,,---,0.00,VWS V14.01,2013-01-30 18:33:00,
2013-01-30 13:36:00,61.9,58.9,28.85,SSW,200,10.1,10.1,90,0.00,,---,0.00,VWS V14.01,2013-01-30 18:36:00,
2013-01-30 13:37:00,61.9,58.9,28.85,SSW,200,10.1,10.1,90,0.00,,---,0.00,VWS V14.01,2013-01-30 18:37:00,
2013-01-30 13:38:00,61.9,58.9,28.85,SSW,197,10.1,10.1,90,0.00,,---,0.00,VWS V14.01,2013-01-30 18:38:00,
2013-01-30 13:42:00,61.9,58.9,28.85,South,173,10.1,10.1,90,0.00,,---,0.00,VWS V14.01,2013-01-30 18:42:00,
2013-01-30 13:43:00,62.1,59.1,28.85,WSW,255,10.1,10.1,90,0.00,,---,0.00,VWS V14.01,2013-01-30 18:43:00,
2013-01-30 13:47:00,62.1,59.1,28.85,SW,236,10.1,10.1,90,0.00,,---,0.00,VWS V14.01,2013-01-30 18:47:00,
2013-01-30 13:49:00,62.2,59.2,28.85,South,181,11.0,11.0,90,0.00,,---,0.00,VWS V14.01,2013-01-30 18:49:00,
2013-01-30 13:50:00,62.2,59.2,28.85,South,181,11.0,11.0,90,0.00,,---,0.00,VWS V14.01,2013-01-30 18:50:00,
2013-01-30 13:52:00,62.2,59.2,28.85,South,176,10.1,11.0,90,0.00,,---,0.00,VWS V14.01,2013-01-30 18:52:00,
2013-01-30 13:54:00,62.2,59.2,28.84,SW,221,10.1,11.0,90,0.00,,---,0.00,VWS V14.01,2013-01-30 18:54:00,
2013-01-30 13:55:00,62.2,59.2,28.84,SE,146,8.9,11.0,90,0.00,,---,0.00,VWS V14.01,2013-01-30 18:55:00,
2013-01-30 13:57:00,62.2,59.2,28.83,WSW,252,8.9,11.0,90,0.00,,---,0.00,VWS V14.01,2013-01-30 18:57:00,
2013-01-30 13:59:00,62.2,59.2,28.84,WSW,238,8.9,11.0,90,0.00,,---,0.00,VWS V14.01,2013-01-30 18:59:00,
2013-01-30 14:00:00,62.2,59.2,28.84,South,174,10.1,11.0,90,0.00,,---,0.00,VWS V14.01,2013-01-30 19:00:00,
2013-01-30 14:04:00,62.4,59.4,28.84,SSW,206,11.0,11.0,90,0.00,,---,0.00,VWS V14.01,2013-01-30 19:04:00,
2013-01-30 14:05:00,62.4,59.4,28.84,SSW,207,12.1,12.1,90,0.00,,---,0.00,VWS V14.01,2013-01-30 19:05:00,
2013-01-30 14:09:00,62.4,59.4,28.84,SSW,195,13.0,13.0,90,0.00,,---,0.00,VWS V14.01,2013-01-30 19:09:00,
2013-01-30 14:10:00,62.4,59.1,28.84,SSE,149,13.0,13.0,89,0.00,,---,0.00,VWS V14.01,2013-01-30 19:10:00,
2013-01-30 14:14:00,62.4,59.1,28.84,SE,136,11.0,13.0,89,0.00,,---,0.00,VWS V14.01,2013-01-30 19:14:00,
2013-01-30 14:15:00,62.4,59.1,28.84,SE,136,11.0,13.0,89,0.00,,---,0.00,VWS V14.01,2013-01-30 19:15:00,
2013-01-30 14:18:00,62.4,59.1,28.84,SW,219,10.1,10.1,89,0.00,,---,0.00,VWS V14.01,2013-01-30 19:18:00,
2013-01-30 14:19:00,62.4,59.1,28.84,West,271,8.9,10.1,89,0.00,,---,0.00,VWS V14.01,2013-01-30 19:19:00,
2013-01-30 14:20:00,62.4,59.1,28.84,West,271,8.9,10.1,89,0.00,,---,0.00,VWS V14.01,2013-01-30 19:20:00,
2013-01-30 14:23:00,62.4,59.1,28.84,SSW,204,10.1,10.1,89,0.00,,---,0.00,VWS V14.01,2013-01-30 19:23:00,
2013-01-30 14:24:00,62.4,59.1,28.84,SSW,207,10.1,10.1,89,0.00,,---,0.00,VWS V14.01,2013-01-30 19:24:00,
2013-01-30 14:25:00,62.4,59.1,28.84,SSW,207,10.1,10.1,89,0.00,,---,0.00,VWS V14.01,2013-01-30 19:25:00,
2013-01-30 14:29:00,62.2,58.9,28.84,SW,220,10.1,10.1,89,0.00,,---,0.00,VWS V14.01,2013-01-30 19:29:00,
2013-01-30 14:30:00,62.2,58.9,28.84,SW,229,10.1,10.1,89,0.00,,---,0.00,VWS V14.01,2013-01-30 19:30:00,
2013-01-30 14:32:00,62.4,59.1,28.84,WSW,252,11.0,11.0,89,0.00,,---,0.00,VWS V14.01,2013-01-30 19:32:00,
2013-01-30 14:34:00,62.4,59.1,28.84,SSW,196,11.0,11.0,89,0.00,,---,0.00,VWS V14.01,2013-01-30 19:34:00,
2013-01-30 14:35:00,62.4,59.1,28.83,South,178,11.0,11.0,89,0.00,,---,0.00,VWS V14.01,2013-01-30 19:35:00,
2013-01-30 14:38:00,62.4,59.1,28.83,SW,214,12.1,12.1,89,0.00,,---,0.00,VWS V14.01,2013-01-30 19:38:00,
2013-01-30 14:39:00,62.4,59.1,28.83,SSE,163,12.1,12.1,89,0.00,,---,0.00,VWS V14.01,2013-01-30 19:39:00,
2013-01-30 14:40:00,62.4,59.1,28.83,SSW,204,12.1,12.1,89,0.00,,---,0.00,VWS V14.01,2013-01-30 19:40:00,
2013-01-30 14:43:00,62.4,59.1,28.83,SSW,196,12.1,12.1,89,0.00,,---,0.00,VWS V14.01,2013-01-30 19:43:00,
2013-01-30 14:44:00,62.4,59.1,28.83,SSW,198,11.0,12.1,89,0.00,,---,0.00,VWS V14.01,2013-01-30 19:44:00,
2013-01-30 14:47:00,62.6,59.6,28.83,SSW,193,11.0,11.0,90,0.00,,---,0.00,VWS V14.01,2013-01-30 19:47:00,
2013-01-30 14:48:00,62.6,59.6,28.82,SW,214,11.0,11.0,90,0.00,,---,0.00,VWS V14.01,2013-01-30 19:48:00,
2013-01-30 14:49:00,62.8,59.5,28.82,SSE,167,11.0,11.0,89,0.00,,---,0.00,VWS V14.01,2013-01-30 19:49:00,
2013-01-30 14:52:00,62.8,59.5,28.82,SSW,208,11.0,11.0,89,0.00,,---,0.00,VWS V14.01,2013-01-30 19:52:00,
2013-01-30 14:53:00,62.8,59.5,28.82,SSW,209,11.0,11.0,89,0.00,,---,0.00,VWS V14.01,2013-01-30 19:53:00,
2013-01-30 14:54:00,63.0,59.7,28.82,SSW,213,12.1,12.1,89,0.00,,---,0.00,VWS V14.01,2013-01-30 19:54:00,
2013-01-30 14:57:00,63.0,59.7,28.82,SSW,197,12.1,12.1,89,0.00,,---,0.00,VWS V14.01,2013-01-30 19:57:00,
2013-01-30 14:58:00,63.0,59.7,28.82,South,171,12.1,12.1,89,0.00,,---,0.00,VWS V14.01,2013-01-30 19:58:00,
2013-01-30 15:01:00,63.1,59.8,28.82,SSW,204,11.0,11.0,89,0.00,,---,0.00,VWS V14.01,2013-01-30 20:01:00,
2013-01-30 15:02:00,63.1,59.8,28.82,SSW,198,11.0,11.0,89,0.00,,---,0.00,VWS V14.01,2013-01-30 20:02:00,
2013-01-30 15:03:00,63.1,59.8,28.83,South,186,12.1,12.1,89,0.00,,---,0.00,VWS V14.01,2013-01-30 20:03:00,
2013-01-30 15:06:00,63.1,59.5,28.82,SSE,161,13.0,13.0,88,0.00,,---,0.00,VWS V14.01,2013-01-30 20:06:00,
2013-01-30 15:07:00,63.3,59.7,28.82,SSW,212,13.0,13.0,88,0.00,,---,0.00,VWS V14.01,2013-01-30 20:07:00,
2013-01-30 15:08:00,63.3,59.7,28.82,SW,225,13.0,13.0,88,0.00,,---,0.00,VWS V14.01,2013-01-30 20:08:00,
2013-01-30 15:11:00,63.3,59.7,28.82,SSW,209,13.0,13.0,88,0.00,,---,0.00,VWS V14.01,2013-01-30 20:11:00,
2013-01-30 15:12:00,63.3,59.7,28.82,SSW,198,13.0,13.0,88,0.00,,---,0.00,VWS V14.01,2013-01-30 20:12:00,
2013-01-30 15:13:00,63.3,59.7,28.82,South,186,14.1,14.1,88,0.00,,---,0.00,VWS V14.01,2013-01-30 20:13:00,
2013-01-30 15:16:00,63.3,59.7,28.82,SW,225,12.1,12.1,88,0.00,,---,0.00,VWS V14.01,2013-01-30 20:16:00,
2013-01-30 15:17:00,63.5,59.9,28.81,SW,234,11.0,12.1,88,0.00,,---,0.00,VWS V14.01,2013-01-30 20:17:00,
2013-01-30 15:18:00,63.5,59.9,28.82,SW,225,11.0,12.1,88,0.00,,---,0.00,VWS V14.01,2013-01-30 20:18:00,
2013-01-30 15:21:00,63.5,59.9,28.82,South,186,11.0,12.1,88,0.00,,---,0.00,VWS V14.01,2013-01-30 20:21:00,
2013-01-30 15:22:00,63.7,60.1,28.81,SSW,194,11.0,12.1,88,0.00,,---,0.00,VWS V14.01,2013-01-30 20:22:00,
2013-01-30 15:23:00,63.7,60.1,28.82,South,184,10.1,12.1,88,0.00,,---,0.00,VWS V14.01,2013-01-30 20:23:00,
2013-01-30 15:26:00,63.7,59.8,28.81,WSW,239,11.0,12.1,87,0.00,,---,0.00,VWS V14.01,2013-01-30 20:26:00,
2013-01-30 15:27:00,63.7,59.8,28.81,SSW,212,11.0,12.1,87,0.00,,---,0.00,VWS V14.01,2013-01-30 20:27:00,
2013-01-30 15:28:00,63.7,59.8,28.80,SSW,200,11.0,12.1,87,0.00,,---,0.00,VWS V14.01,2013-01-30 20:28:00,
2013-01-30 15:31:00,63.9,60.0,28.81,South,174,13.0,13.0,87,0.00,,---,0.00,VWS V14.01,2013-01-30 20:31:00,
2013-01-30 15:32:00,63.9,60.0,28.81,SSW,200,13.0,13.0,87,0.00,,---,0.00,VWS V14.01,2013-01-30 20:32:00,
2013-01-30 15:33:00,63.9,60.0,28.81,SSW,194,14.1,14.1,87,0.00,,---,0.00,VWS V14.01,2013-01-30 20:33:00,
2013-01-30 15:36:00,63.9,60.0,28.81,SSW,196,14.1,14.1,87,0.00,,---,0.00,VWS V14.01,2013-01-30 20:36:00,
2013-01-30 15:37:00,63.9,60.0,28.81,SSW,193,13.0,14.1,87,0.00,,---,0.00,VWS V14.01,2013-01-30 20:37:00,
2013-01-30 15:38:00,63.9,60.0,28.81,SW,236,13.0,14.1,87,0.00,,---,0.00,VWS V14.01,2013-01-30 20:38:00,
2013-01-30 15:41:00,63.9,60.0,28.81,SSW,209,12.1,14.1,87,0.00,,---,0.00,VWS V14.01,2013-01-30 20:41:00,
2013-01-30 15:42:00,63.9,60.0,28.81,SSW,200,11.0,14.1,87,0.00,,---,0.00,VWS V14.01,2013-01-30 20:42:00,
2013-01-30 15:43:00,63.9,60.0,28.81,SSW,200,11.0,14.1,87,0.00,,---,0.00,VWS V14.01,2013-01-30 20:43:00,
2013-01-30 15:46:00,63.9,60.0,28.82,SSW,208,11.0,11.0,87,0.00,,---,0.00,VWS V14.01,2013-01-30 20:46:00,
2013-01-30 15:47:00,63.9,60.0,28.82,SSW,198,12.1,12.1,87,0.00,,---,0.00,VWS V14.01,2013-01-30 20:47:00,
2013-01-30 15:48:00,63.9,60.0,28.82,SSW,198,12.1,12.1,87,0.00,,---,0.00,VWS V14.01,2013-01-30 20:48:00,
2013-01-30 15:51:00,63.9,59.6,28.82,WSW,239,12.1,12.1,86,0.00,,---,0.00,VWS V14.01,2013-01-30 20:51:00,
2013-01-30 15:52:00,63.9,59.6,28.82,SW,221,11.0,12.1,86,0.00,,---,0.00,VWS V14.01,2013-01-30 20:52:00,
2013-01-30 15:53:00,63.9,59.6,28.83,WSW,246,11.0,12.1,86,0.00,,---,0.00,VWS V14.01,2013-01-30 20:53:00,
2013-01-30 15:56:00,63.9,59.6,28.84,WNW,287,8.9,12.1,86,0.00,,---,0.00,VWS V14.01,2013-01-30 20:56:00,
2013-01-30 15:59:00,63.7,59.4,28.85,NW,313,6.9,6.9,86,0.00,,---,0.00,VWS V14.01,2013-01-30 20:59:00,
2013-01-30 16:00:00,63.7,59.4,28.85,NW,313,6.9,6.9,86,0.00,,---,0.00,VWS V14.01,2013-01-30 21:00:00,
2013-01-30 16:01:00,63.7,59.4,28.85,NNW,340,6.0,6.9,86,0.00,,---,0.00,VWS V14.01,2013-01-30 21:01:00,
2013-01-30 16:04:00,63.0,58.1,28.86,SW,233,4.9,6.9,84,0.00,,---,0.00,VWS V14.01,2013-01-30 21:04:00,
2013-01-30 16:05:00,63.0,58.1,28.86,SW,233,4.9,6.9,84,0.00,,---,0.00,VWS V14.01,2013-01-30 21:05:00,
2013-01-30 16:06:00,62.8,57.9,28.85,SW,219,4.0,6.9,84,0.00,,---,0.00,VWS V14.01,2013-01-30 21:06:00,
2013-01-30 16:09:00,61.9,57.0,28.86,North,355,2.0,6.9,84,0.00,,---,0.00,VWS V14.01,2013-01-30 21:09:00,
2013-01-30 16:10:00,61.9,57.0,28.86,North,355,2.0,6.9,84,0.00,,---,0.00,VWS V14.01,2013-01-30 21:10:00,
2013-01-30 16:11:00,61.9,57.3,28.86,North,355,2.0,6.9,85,0.00,,---,0.02,VWS V14.01,2013-01-30 21:11:00,
2013-01-30 16:15:00,61.3,56.8,28.86,SSE,160,0.9,0.9,85,0.00,,---,0.02,VWS V14.01,2013-01-30 21:15:00,
2013-01-30 16:16:00,61.2,56.7,28.86,South,177,0.9,0.9,85,0.00,,---,0.03,VWS V14.01,2013-01-30 21:16:00,
2013-01-30 16:20:00,60.6,56.4,28.86,SSW,205,0.9,0.9,86,0.00,,---,0.03,VWS V14.01,2013-01-30 21:20:00,
2013-01-30 16:21:00,60.4,56.5,28.86,SSW,205,0.9,0.9,87,0.00,,---,0.04,VWS V14.01,2013-01-30 21:21:00,
2013-01-30 16:25:00,60.1,56.2,28.86,SSW,205,0.9,0.9,87,0.00,,---,0.04,VWS V14.01,2013-01-30 21:25:00,
2013-01-30 16:26:00,60.1,56.5,28.86,SSW,205,0.9,0.9,88,0.00,,---,0.06,VWS V14.01,2013-01-30 21:26:00,
2013-01-30 16:30:00,59.7,56.2,28.86,SSW,205,0.0,0.0,88,0.00,,---,0.06,VWS V14.01,2013-01-30 21:30:00,
2013-01-30 16:31:00,59.7,56.2,28.86,SSW,205,0.0,0.0,88,0.00,,---,0.06,VWS V14.01,2013-01-30 21:31:00,
2013-01-30 16:35:00,59.5,56.0,28.85,SSW,205,0.0,0.0,88,0.00,,---,0.06,VWS V14.01,2013-01-30 21:35:00,
2013-01-30 16:36:00,59.5,56.0,28.85,SSW,205,0.0,0.0,88,0.00,,---,0.06,VWS V14.01,2013-01-30 21:36:00,
2013-01-30 16:40:00,59.4,55.8,28.85,SSW,205,0.0,0.0,88,0.00,,---,0.06,VWS V14.01,2013-01-30 21:40:00,
2013-01-30 16:41:00,59.4,55.8,28.85,SSW,205,0.0,0.0,88,0.00,,---,0.07,VWS V14.01,2013-01-30 21:41:00,
2013-01-30 16:44:00,59.2,56.0,28.84,SSW,205,0.0,0.0,89,0.00,,---,0.07,VWS V14.01,2013-01-30 21:44:00,
2013-01-30 16:45:00,59.2,56.0,28.84,SSW,205,0.0,0.0,89,0.00,,---,0.07,VWS V14.01,2013-01-30 21:45:00,
2013-01-30 16:46:00,59.0,55.8,28.84,SSW,205,0.0,0.0,89,0.00,,---,0.08,VWS V14.01,2013-01-30 21:46:00,
2013-01-30 16:49:00,59.0,55.8,28.84,SSW,205,0.0,0.0,89,0.00,,---,0.08,VWS V14.01,2013-01-30 21:49:00,
2013-01-30 16:50:00,59.0,55.8,28.84,SSW,205,0.0,0.0,89,0.00,,---,0.08,VWS V14.01,2013-01-30 21:50:00,
2013-01-30 16:51:00,59.0,55.8,28.84,SSW,205,0.0,0.0,89,0.00,,---,0.08,VWS V14.01,2013-01-30 21:51:00,
2013-01-30 16:54:00,59.0,55.8,28.84,SSW,205,0.0,0.0,89,0.00,,---,0.08,VWS V14.01,2013-01-30 21:54:00,
2013-01-30 16:55:00,58.8,55.6,28.84,SSW,205,0.0,0.0,89,0.00,,---,0.08,VWS V14.01,2013-01-30 21:55:00,
2013-01-30 16:58:00,58.8,55.6,28.84,SSW,205,0.0,0.0,89,0.00,,---,0.08,VWS V14.01,2013-01-30 21:58:00,
2013-01-30 16:59:00,58.6,55.4,28.84,SSW,205,0.0,0.0,89,0.00,,---,0.08,VWS V14.01,2013-01-30 21:59:00,
2013-01-30 17:00:00,58.6,55.4,28.84,SSW,205,0.0,0.0,89,0.00,,---,0.08,VWS V14.01,2013-01-30 22:00:00,
2013-01-30 17:03:00,58.5,55.6,28.84,SSW,205,0.0,0.0,90,0.00,,---,0.08,VWS V14.01,2013-01-30 22:03:00,
2013-01-30 17:04:00,58.5,55.6,28.84,SSW,205,0.0,0.0,90,0.00,,---,0.08,VWS V14.01,2013-01-30 22:04:00,
2013-01-30 17:05:00,58.5,55.6,28.83,SSW,205,0.9,0.9,90,0.00,,---,0.08,VWS V14.01,2013-01-30 22:05:00,
2013-01-30 17:08:00,58.3,55.4,28.84,SSW,205,0.9,0.9,90,0.00,,---,0.08,VWS V14.01,2013-01-30 22:08:00,
2013-01-30 17:09:00,58.3,55.4,28.84,SSW,205,0.9,0.9,90,0.00,,---,0.08,VWS V14.01,2013-01-30 22:09:00,
2013-01-30 17:10:00,58.1,55.2,28.84,SSW,205,0.9,0.9,90,0.00,,---,0.08,VWS V14.01,2013-01-30 22:10:00,
2013-01-30 17:13:00,57.7,54.8,28.84,SSW,205,0.9,0.9,90,0.00,,---,0.08,VWS V14.01,2013-01-30 22:13:00,
2013-01-30 17:14:00,57.7,54.8,28.84,SSW,205,0.9,0.9,90,0.00,,---,0.08,VWS V14.01,2013-01-30 22:14:00,
2013-01-30 17:15:00,57.6,54.7,28.82,SSW,205,0.9,0.9,90,0.00,,---,0.09,VWS V14.01,2013-01-30 22:15:00,
2013-01-30 17:18:00,57.6,55.0,28.83,SSW,205,0.9,0.9,91,0.00,,---,0.09,VWS V14.01,2013-01-30 22:18:00,
2013-01-30 17:19:00,57.6,55.0,28.83,SSW,205,0.9,0.9,91,0.00,,---,0.09,VWS V14.01,2013-01-30 22:19:00,
2013-01-30 17:20:00,57.4,54.8,28.84,SSW,205,0.9,0.9,91,0.00,,---,0.09,VWS V14.01,2013-01-30 22:20:00,
2013-01-30 17:23:00,57.0,54.4,28.83,North,355,0.9,0.9,91,0.00,,---,0.09,VWS V14.01,2013-01-30 22:23:00,
2013-01-30 17:24:00,57.0,54.4,28.83,North,355,0.9,0.9,91,0.00,,---,0.09,VWS V14.01,2013-01-30 22:24:00,
2013-01-30 17:27:00,56.8,54.5,28.84,North,355,2.0,2.0,92,0.00,,---,0.10,VWS V14.01,2013-01-30 22:27:00,
2013-01-30 17:28:00,56.8,54.5,28.84,North,355,0.9,2.0,92,0.00,,---,0.10,VWS V14.01,2013-01-30 22:28:00,
2013-01-30 17:29:00,56.8,54.5,28.84,North,355,0.9,2.0,92,0.00,,---,0.10,VWS V14.01,2013-01-30 22:29:00,
2013-01-30 17:31:00,56.8,54.5,29.63,North,355,1.0,4.0,92,0.04,,,0.10,meteohub,2013-01-30 22:31:00,
2013-01-30 17:32:00,56.7,54.4,28.84,North,355,0.9,0.9,92,0.00,,---,0.10,VWS V14.01,2013-01-30 22:32:00,
2013-01-30 17:33:00,56.7,54.4,28.83,North,355,0.9,0.9,92,0.00,,---,0.10,VWS V14.01,2013-01-30 22:33:00,
2013-01-30 17:34:00,56.7,54.4,28.83,North,355,0.9,0.9,92,0.00,,---,0.10,VWS V14.01,2013-01-30 22:34:00,
2013-01-30 17:37:00,56.7,54.4,28.83,North,355,0.0,0.9,92,0.00,,---,0.10,VWS V14.01,2013-01-30 22:37:00,
2013-01-30 17:38:00,56.5,54.2,28.83,North,355,0.0,0.9,92,0.00,,---,0.10,VWS V14.01,2013-01-30 22:38:00,
2013-01-30 17:42:00,56.5,54.2,28.82,North,355,0.0,0.0,92,0.00,,---,0.11,VWS V14.01,2013-01-30 22:42:00,
2013-01-30 17:43:00,56.5,54.5,28.83,North,355,0.0,0.0,93,0.00,,---,0.11,VWS V14.01,2013-01-30 22:43:00,
2013-01-30 17:47:00,56.5,54.5,28.83,North,355,0.0,0.0,93,0.00,,---,0.12,VWS V14.01,2013-01-30 22:47:00,
2013-01-30 17:48:00,56.3,54.3,28.83,North,355,0.0,0.0,93,0.00,,---,0.12,VWS V14.01,2013-01-30 22:48:00,
2013-01-30 17:52:00,56.1,54.1,28.83,North,355,0.0,0.0,93,0.00,,---,0.12,VWS V14.01,2013-01-30 22:52:00,
2013-01-30 17:56:00,56.1,54.1,28.83,North,355,0.0,0.0,93,0.00,,---,0.12,VWS V14.01,2013-01-30 22:56:00,
2013-01-30 17:57:00,56.1,54.1,28.83,North,355,0.0,0.0,93,0.00,,---,0.12,VWS V14.01,2013-01-30 22:57:00,
2013-01-30 18:01:00,56.1,54.1,28.83,West,263,0.0,0.0,93,0.00,,---,0.12,VWS V14.01,2013-01-30 23:01:00,
2013-01-30 18:02:00,56.1,54.1,28.83,West,263,0.0,0.0,93,0.00,,---,0.12,VWS V14.01,2013-01-30 23:02:00,
2013-01-30 18:03:00,56.1,54.1,28.83,West,263,0.0,0.0,93,0.00,,---,0.12,VWS V14.01,2013-01-30 23:03:00,
2013-01-30 18:06:00,56.1,54.1,28.83,West,263,0.9,0.9,93,0.00,,---,0.13,VWS V14.01,2013-01-30 23:06:00,
2013-01-30 18:07:00,56.1,54.1,28.83,South,179,0.9,0.9,93,0.00,,---,0.13,VWS V14.01,2013-01-30 23:07:00,
2013-01-30 18:10:00,56.1,54.4,28.83,SSW,200,0.9,0.9,94,0.00,,---,0.13,VWS V14.01,2013-01-30 23:10:00,
2013-01-30 18:11:00,56.1,54.4,28.83,SSW,200,0.9,0.9,94,0.00,,---,0.14,VWS V14.01,2013-01-30 23:11:00,
2013-01-30 18:12:00,56.1,54.4,28.83,SSW,200,0.9,0.9,94,0.00,,---,0.14,VWS V14.01,2013-01-30 23:12:00,
2013-01-30 18:15:00,56.1,54.4,28.83,SSW,200,0.9,0.9,94,0.00,,---,0.14,VWS V14.01,2013-01-30 23:15:00,
2013-01-30 18:16:00,56.1,54.4,28.83,SSW,200,0.9,0.9,94,0.00,,---,0.14,VWS V14.01,2013-01-30 23:16:00,
2013-01-30 18:17:00,56.1,54.4,28.83,SSW,200,0.9,0.9,94,0.00,,---,0.14,VWS V14.01,2013-01-30 23:17:00,
2013-01-30 18:20:00,56.1,54.4,28.82,SSW,200,0.9,0.9,94,0.00,,---,0.14,VWS V14.01,2013-01-30 23:20:00,
2013-01-30 18:21:00,56.1,54.4,28.82,SSW,200,0.9,0.9,94,0.00,,---,0.16,VWS V14.01,2013-01-30 23:21:00,
2013-01-30 18:22:00,56.1,54.4,28.82,SSW,200,0.9,0.9,94,0.00,,---,0.16,VWS V14.01,2013-01-30 23:22:00,
2013-01-30 18:25:00,56.1,54.4,28.82,SSW,200,0.0,0.9,94,0.00,,---,0.16,VWS V14.01,2013-01-30 23:25:00,
2013-01-30 18:26:00,56.1,54.4,28.82,SSW,200,0.0,0.9,94,0.00,,---,0.16,VWS V14.01,2013-01-30 23:26:00,
2013-01-30 18:27:00,56.1,54.4,28.82,SSW,200,0.0,0.9,94,0.00,,---,0.16,VWS V14.01,2013-01-30 23:27:00,
2013-01-30 18:31:00,55.9,54.2,28.81,SSW,200,0.0,0.0,94,0.00,,---,0.16,VWS V14.01,2013-01-30 23:31:00,
2013-01-30 18:32:00,55.9,54.2,28.81,SSW,200,0.0,0.0,94,0.00,,---,0.16,VWS V14.01,2013-01-30 23:32:00,
2013-01-30 18:36:00,55.9,54.2,28.81,SSW,200,0.0,0.0,94,0.00,,---,0.16,VWS V14.01,2013-01-30 23:36:00,
2013-01-30 18:37:00,55.9,54.2,28.81,SSW,200,0.0,0.0,94,0.00,,---,0.16,VWS V14.01,2013-01-30 23:37:00,
2013-01-30 18:41:00,55.9,54.2,28.81,SSW,200,0.0,0.0,94,0.00,,---,0.16,VWS V14.01,2013-01-30 23:41:00,
2013-01-30 18:42:00,55.9,54.2,28.81,SSW,200,0.0,0.0,94,0.00,,---,0.16,VWS V14.01,2013-01-30 23:42:00,
2013-01-30 18:43:00,55.9,54.2,28.81,SSW,200,0.0,0.0,94,0.00,,---,0.16,VWS V14.01,2013-01-30 23:43:00,
2013-01-30 18:46:00,55.8,54.1,28.81,SSW,200,0.9,0.9,94,0.00,,---,0.17,VWS V14.01,2013-01-30 23:46:00,
2013-01-30 18:47:00,55.8,54.1,28.81,SSW,200,0.9,0.9,94,0.00,,---,0.17,VWS V14.01,2013-01-30 23:47:00,
2013-01-30 18:48:00,55.8,54.1,28.80,SSW,200,0.9,0.9,94,0.00,,---,0.17,VWS V14.01,2013-01-30 23:48:00,
2013-01-30 18:52:00,55.8,54.1,28.81,SSW,200,0.9,0.9,94,0.00,,---,0.18,VWS V14.01,2013-01-30 23:52:00,
2013-01-30 18:53:00,55.6,53.9,28.82,SSW,200,0.9,0.9,94,0.00,,---,0.18,VWS V14.01,2013-01-30 23:53:00,
2013-01-30 18:57:00,55.6,53.9,28.81,SSW,200,0.9,0.9,94,0.00,,---,0.18,VWS V14.01,2013-01-30 23:57:00,
2013-01-30 19:00:00,55.6,53.9,28.81,SSW,200,0.9,0.9,94,0.00,,---,0.18,VWS V14.01,2013-01-31 00:00:00,
2013-01-30 19:02:00,55.6,53.9,28.80,SSW,200,0.9,0.9,94,0.00,,---,0.20,VWS V14.01,2013-01-31 00:02:00,
2013-01-30 19:05:00,55.6,54.2,28.80,SSW,200,0.0,0.9,95,0.00,,---,0.20,VWS V14.01,2013-01-31 00:05:00,
2013-01-30 19:07:00,55.6,54.2,28.80,SSW,200,0.0,0.9,95,0.00,,---,0.22,VWS V14.01,2013-01-31 00:07:00,
2013-01-30 19:08:00,55.6,54.2,28.80,SSW,200,0.0,0.9,95,0.00,,---,0.22,VWS V14.01,2013-01-31 00:08:00,
2013-01-30 19:10:00,55.6,54.2,28.80,SSW,200,0.0,0.9,95,0.00,,---,0.22,VWS V14.01,2013-01-31 00:10:00,
2013-01-30 19:12:00,55.6,54.2,28.79,SSW,200,0.0,0.9,95,0.00,,---,0.26,VWS V14.01,2013-01-31 00:12:00,
2013-01-30 19:13:00,55.6,54.2,28.79,SSW,200,0.0,0.9,95,0.00,,---,0.26,VWS V14.01,2013-01-31 00:13:00,
2013-01-30 19:15:00,55.6,54.2,28.79,SSW,200,0.0,0.9,95,0.00,,---,0.26,VWS V14.01,2013-01-31 00:15:00,
2013-01-30 19:17:00,55.6,54.2,28.79,SSW,200,0.0,0.9,95,0.00,,---,0.28,VWS V14.01,2013-01-31 00:17:00,
2013-01-30 19:18:00,55.6,54.2,28.79,SSW,200,0.0,0.9,95,0.00,,---,0.28,VWS V14.01,2013-01-31 00:18:00,
2013-01-30 19:20:00,55.4,54.0,28.79,SSW,200,0.0,0.9,95,0.00,,---,0.28,VWS V14.01,2013-01-31 00:20:00,
2013-01-30 19:22:00,55.4,54.0,28.79,SSW,200,0.0,0.9,95,0.00,,---,0.29,VWS V14.01,2013-01-31 00:22:00,
2013-01-30 19:23:00,55.4,54.0,28.79,SSW,200,0.9,0.9,95,0.00,,---,0.29,VWS V14.01,2013-01-31 00:23:00,
2013-01-30 19:27:00,55.6,54.2,28.78,SSE,150,0.9,0.9,95,0.00,,---,0.30,VWS V14.01,2013-01-31 00:27:00,
2013-01-30 19:28:00,55.6,54.2,28.78,South,171,0.9,0.9,95,0.00,,---,0.30,VWS V14.01,2013-01-31 00:28:00,
2013-01-30 19:32:00,55.6,54.2,28.77,South,171,0.9,0.9,95,0.00,,---,0.32,VWS V14.01,2013-01-31 00:32:00,
2013-01-30 19:33:00,55.6,54.2,28.77,South,171,0.9,0.9,95,0.00,,---,0.32,VWS V14.01,2013-01-31 00:33:00,
2013-01-30 19:37:00,55.4,54.0,28.76,South,171,0.0,0.9,95,0.00,,---,0.32,VWS V14.01,2013-01-31 00:37:00,
2013-01-30 19:38:00,55.4,54.0,28.76,South,171,0.0,0.9,95,0.00,,---,0.32,VWS V14.01,2013-01-31 00:38:00,
2013-01-30 19:43:00,55.2,53.8,28.75,South,171,0.0,0.0,95,0.00,,---,0.33,VWS V14.01,2013-01-31 00:43:00,
2013-01-30 19:48:00,55.2,53.8,28.75,SSW,194,0.9,0.9,95,0.00,,---,0.34,VWS V14.01,2013-01-31 00:48:00,
2013-01-30 19:53:00,55.2,53.8,28.74,SSE,149,2.0,2.0,95,0.00,,---,0.34,VWS V14.01,2013-01-31 00:53:00,
2013-01-30 19:55:00,55.2,53.8,28.74,SSE,149,2.0,2.0,95,0.00,,---,0.36,VWS V14.01,2013-01-31 00:55:00,
2013-01-30 19:58:00,55.2,53.8,28.74,SSE,149,0.9,2.0,95,0.00,,---,0.36,VWS V14.01,2013-01-31 00:58:00,
2013-01-30 20:00:00,55.2,53.8,28.74,SSE,149,0.9,0.9,95,0.00,,---,0.36,VWS V14.01,2013-01-31 01:00:00,
2013-01-30 20:03:00,55.2,53.8,28.74,SSE,149,0.0,0.9,95,0.00,,---,0.36,VWS V14.01,2013-01-31 01:03:00,
2013-01-30 20:05:00,55.2,54.1,28.74,SSE,149,0.0,0.9,96,0.00,,---,0.36,VWS V14.01,2013-01-31 01:05:00,
2013-01-30 20:06:00,55.2,54.1,28.74,SSE,149,0.0,0.9,96,0.00,,---,0.36,VWS V14.01,2013-01-31 01:06:00,
2013-01-30 20:09:00,55.2,54.1,28.73,SSE,149,0.0,0.0,96,0.00,,---,0.36,VWS V14.01,2013-01-31 01:09:00,
2013-01-30 20:10:00,55.2,54.1,28.72,SSE,149,0.0,0.0,96,0.00,,---,0.36,VWS V14.01,2013-01-31 01:10:00,
2013-01-30 20:11:00,55.2,54.1,28.72,SSE,149,0.0,0.0,96,0.00,,---,0.36,VWS V14.01,2013-01-31 01:11:00,
2013-01-30 20:12:00,55.2,54.1,29.52,SSE,149,0.0,2.0,96,0.10,,,0.36,meteohub,2013-01-31 01:12:00,
2013-01-30 20:14:00,55.2,54.1,28.73,SSE,149,0.0,0.0,96,0.00,,---,0.36,VWS V14.01,2013-01-31 01:14:00,
2013-01-30 20:16:00,55.0,53.6,28.73,SSE,149,0.0,0.0,95,0.00,,---,0.36,VWS V14.01,2013-01-31 01:16:00,
2013-01-30 20:19:00,55.0,53.6,28.72,SSE,149,0.9,0.9,95,0.00,,---,0.36,VWS V14.01,2013-01-31 01:19:00,
2013-01-30 20:21:00,55.0,53.6,28.72,SSE,149,0.9,0.9,95,0.00,,---,0.37,VWS V14.01,2013-01-31 01:21:00,
2013-01-30 20:24:00,55.0,53.6,28.72,SSE,149,0.9,0.9,95,0.00,,---,0.37,VWS V14.01,2013-01-31 01:24:00,
2013-01-30 20:25:00,55.0,53.6,28.72,SSE,149,0.9,0.9,95,0.00,,---,0.37,VWS V14.01,2013-01-31 01:25:00,
2013-01-30 20:26:00,54.9,53.5,28.72,SSE,149,0.9,0.9,95,0.00,,---,0.38,VWS V14.01,2013-01-31 01:26:00,
2013-01-30 20:29:00,54.9,53.5,28.73,SSE,149,0.9,0.9,95,0.00,,---,0.38,VWS V14.01,2013-01-31 01:29:00,
2013-01-30 20:30:00,54.9,53.5,28.73,SSE,149,0.9,0.9,95,0.00,,---,0.38,VWS V14.01,2013-01-31 01:30:00,
2013-01-30 20:31:00,54.9,53.8,28.73,SSE,149,0.9,0.9,96,0.00,,---,0.38,VWS V14.01,2013-01-31 01:31:00,
2013-01-30 20:34:00,54.7,53.3,28.71,SSE,149,0.9,0.9,95,0.00,,---,0.38,VWS V14.01,2013-01-31 01:34:00,
2013-01-30 20:35:00,54.7,53.3,28.71,SSE,149,0.9,0.9,95,0.00,,---,0.38,VWS V14.01,2013-01-31 01:35:00,
2013-01-30 20:38:00,54.7,53.6,28.73,SSE,149,2.0,2.0,96,0.00,,---,0.40,VWS V14.01,2013-01-31 01:38:00,
2013-01-30 20:39:00,54.5,53.4,28.73,SSW,211,2.0,2.0,96,0.00,,---,0.40,VWS V14.01,2013-01-31 01:39:00,
2013-01-30 20:40:00,54.5,53.4,28.73,SSW,211,2.0,2.0,96,0.00,,---,0.40,VWS V14.01,2013-01-31 01:40:00,
2013-01-30 20:43:00,54.5,53.1,28.70,ENE,57,2.0,2.0,95,0.00,,---,0.41,VWS V14.01,2013-01-31 01:43:00,
2013-01-30 20:45:00,54.3,52.9,28.74,WSW,243,2.9,2.9,95,0.00,,---,0.41,VWS V14.01,2013-01-31 01:45:00,
2013-01-30 20:48:00,54.3,52.9,28.72,SE,132,2.9,2.9,95,0.00,,---,0.43,VWS V14.01,2013-01-31 01:48:00,
2013-01-30 20:52:00,54.3,53.2,28.72,SE,132,2.0,2.0,96,0.00,,---,0.44,VWS V14.01,2013-01-31 01:52:00,
2013-01-30 20:53:00,54.3,53.2,28.73,WNW,294,2.0,2.0,96,0.00,,---,0.44,VWS V14.01,2013-01-31 01:53:00,
2013-01-30 20:57:00,54.3,53.2,28.74,WSW,248,0.9,2.0,96,0.00,,---,0.49,VWS V14.01,2013-01-31 01:57:00,
2013-01-30 20:58:00,54.3,53.2,28.74,WSW,248,2.0,2.0,96,0.00,,---,0.49,VWS V14.01,2013-01-31 01:58:00,
2013-01-30 21:02:00,54.3,53.2,28.73,WSW,248,2.0,2.0,96,0.00,,---,0.58,VWS V14.01,2013-01-31 02:02:00,
2013-01-30 21:03:00,54.3,53.2,28.73,WSW,248,0.9,2.0,96,0.00,,---,0.58,VWS V14.01,2013-01-31 02:03:00,
2013-01-30 21:07:00,54.3,53.2,28.72,WSW,248,0.9,2.0,96,0.00,,---,0.64,VWS V14.01,2013-01-31 02:07:00,
2013-01-30 21:08:00,54.3,53.2,28.71,WSW,248,0.9,2.0,96,0.00,,---,0.64,VWS V14.01,2013-01-31 02:08:00,
2013-01-30 21:12:00,54.3,53.2,28.71,WSW,248,0.0,2.0,96,0.00,,---,0.68,VWS V14.01,2013-01-31 02:12:00,
2013-01-30 21:13:00,54.3,53.2,28.71,WSW,248,0.0,2.0,96,0.00,,---,0.68,VWS V14.01,2013-01-31 02:13:00,
2013-01-30 21:18:00,54.3,53.2,28.71,WSW,248,0.0,0.0,96,0.00,,---,0.69,VWS V14.01,2013-01-31 02:18:00,
2013-01-30 21:23:00,54.5,53.4,28.70,WSW,248,0.0,0.0,96,0.00,,---,0.70,VWS V14.01,2013-01-31 02:23:00,
2013-01-30 21:28:00,54.5,53.4,29.49,WSW,248,0.0,0.0,96,0.32,,,0.70,meteohub,2013-01-31 02:28:00,
2013-01-30 21:30:00,54.5,53.4,28.69,WSW,248,0.0,0.0,96,0.00,,---,0.70,VWS V14.01,2013-01-31 02:30:00,
2013-01-30 21:35:00,54.5,53.4,28.69,WSW,248,0.0,0.0,96,0.00,,---,0.71,VWS V14.01,2013-01-31 02:35:00,
2013-01-30 21:40:00,54.5,53.4,28.68,WSW,248,0.0,0.0,96,0.00,,---,0.71,VWS V14.01,2013-01-31 02:40:00,
2013-01-30 21:45:00,54.5,53.4,28.67,WSW,248,0.0,0.0,96,0.00,,---,0.72,VWS V14.01,2013-01-31 02:45:00,
2013-01-30 21:50:00,54.5,53.4,28.69,WSW,248,0.0,0.0,96,0.00,,---,0.72,VWS V14.01,2013-01-31 02:50:00,
2013-01-30 21:51:00,54.5,53.4,28.69,WSW,248,0.0,0.0,96,0.00,,---,0.73,VWS V14.01,2013-01-31 02:51:00,
2013-01-30 21:55:00,54.5,53.4,28.67,WSW,248,0.0,0.0,96,0.00,,---,0.73,VWS V14.01,2013-01-31 02:55:00,
2013-01-30 21:56:00,54.3,53.2,28.67,WSW,248,0.0,0.0,96,0.00,,---,0.74,VWS V14.01,2013-01-31 02:56:00,
2013-01-30 22:00:00,54.3,53.2,28.66,WSW,248,0.0,0.0,96,0.00,,---,0.74,VWS V14.01,2013-01-31 03:00:00,
2013-01-30 22:01:00,54.3,53.2,28.66,WSW,248,0.0,0.0,96,0.00,,---,0.74,VWS V14.01,2013-01-31 03:01:00,
2013-01-30 22:05:00,54.3,53.2,28.64,WSW,248,0.0,0.0,96,0.00,,---,0.74,VWS V14.01,2013-01-31 03:05:00,
2013-01-30 22:06:00,54.3,53.2,28.64,WSW,248,0.0,0.0,96,0.00,,---,0.75,VWS V14.01,2013-01-31 03:06:00,
2013-01-30 22:11:00,54.0,52.9,29.44,WSW,248,0.0,1.0,96,0.07,,,0.75,meteohub,2013-01-31 03:11:00,
2013-01-30 22:13:00,53.8,52.7,28.64,WSW,248,0.0,0.0,96,0.00,,---,0.75,VWS V14.01,2013-01-31 03:13:00,
2013-01-30 22:18:00,53.2,52.1,28.64,WSW,248,0.0,0.0,96,0.00,,---,0.75,VWS V14.01,2013-01-31 03:18:00,
2013-01-30 22:23:00,53.1,52.0,28.63,WSW,248,0.0,0.0,96,0.00,,---,0.75,VWS V14.01,2013-01-31 03:23:00,
2013-01-30 22:28:00,53.1,52.0,28.64,WSW,248,0.9,0.9,96,0.00,,---,0.76,VWS V14.01,2013-01-31 03:28:00,
2013-01-30 22:33:00,52.9,51.8,28.63,WSW,248,0.9,0.9,96,0.00,,---,0.76,VWS V14.01,2013-01-31 03:33:00,
2013-01-30 22:38:00,52.9,51.8,28.60,WSW,248,0.9,0.9,96,0.00,,---,0.76,VWS V14.01,2013-01-31 03:38:00,
2013-01-30 22:43:00,52.5,51.4,28.60,WSW,248,0.9,0.9,96,0.00,,---,0.76,VWS V14.01,2013-01-31 03:43:00,
2013-01-30 22:48:00,52.7,51.6,28.60,WSW,248,0.9,0.9,96,0.00,,---,0.76,VWS V14.01,2013-01-31 03:48:00,
2013-01-30 22:53:00,52.9,51.8,29.39,WSW,248,0.0,3.0,96,0.04,,,0.76,meteohub,2013-01-31 03:53:00,
2013-01-30 22:55:00,52.9,51.8,28.59,WSW,248,0.0,0.0,96,0.00,,---,0.76,VWS V14.01,2013-01-31 03:55:00,
2013-01-30 23:00:00,53.1,52.3,28.58,WSW,248,0.0,0.0,97,0.00,,---,0.78,VWS V14.01,2013-01-31 04:00:00,
2013-01-30 23:01:00,53.1,52.3,28.57,WSW,248,0.0,0.0,97,0.00,,---,0.79,VWS V14.01,2013-01-31 04:01:00,
2013-01-30 23:05:00,53.2,52.4,28.59,South,182,0.9,0.9,97,0.00,,---,0.79,VWS V14.01,2013-01-31 04:05:00,
2013-01-30 23:06:00,53.2,52.4,28.59,South,182,0.9,0.9,97,0.00,,---,0.80,VWS V14.01,2013-01-31 04:06:00,
2013-01-30 23:10:00,53.6,52.8,28.59,SSW,209,2.0,2.0,97,0.00,,---,0.80,VWS V14.01,2013-01-31 04:10:00,
2013-01-30 23:11:00,53.8,53.0,28.60,SSW,209,2.0,2.0,97,0.00,,---,0.84,VWS V14.01,2013-01-31 04:11:00,
2013-01-30 23:15:00,54.0,53.2,28.58,SSW,209,2.0,2.9,97,0.00,,---,0.84,VWS V14.01,2013-01-31 04:15:00,
2013-01-30 23:16:00,54.0,53.2,28.58,SSW,209,2.0,2.9,97,0.00,,---,0.88,VWS V14.01,2013-01-31 04:16:00,
2013-01-30 23:20:00,54.0,53.2,28.59,SSW,209,0.9,2.9,97,0.00,,---,0.88,VWS V14.01,2013-01-31 04:20:00,
2013-01-30 23:21:00,54.1,53.3,28.58,SSE,149,0.9,2.9,97,0.00,,---,0.90,VWS V14.01,2013-01-31 04:21:00,
2013-01-30 23:25:00,54.1,53.3,28.56,SE,132,2.0,2.0,97,0.00,,---,0.92,VWS V14.01,2013-01-31 04:25:00,
2013-01-30 23:26:00,54.1,53.3,28.56,SE,132,2.0,2.0,97,0.00,,---,0.92,VWS V14.01,2013-01-31 04:26:00,
2013-01-30 23:30:00,54.1,53.3,28.55,ESE,103,2.0,2.9,97,0.00,,---,0.93,VWS V14.01,2013-01-31 04:30:00,
2013-01-30 23:31:00,54.1,53.3,28.55,ESE,103,2.0,2.9,97,0.00,,---,0.93,VWS V14.01,2013-01-31 04:31:00,
2013-01-30 23:36:00,54.1,53.2,29.34,SSW,209,3.0,7.0,97,0.20,,,0.96,meteohub,2013-01-31 04:36:00,
2013-01-30 23:37:00,54.1,53.3,28.54,SSW,209,2.0,2.0,97,0.00,,---,0.96,VWS V14.01,2013-01-31 04:37:00,
2013-01-30 23:42:00,54.3,53.5,28.53,South,185,2.9,2.9,97,0.00,,---,0.97,VWS V14.01,2013-01-31 04:42:00,
2013-01-30 23:43:00,54.3,53.5,28.53,South,185,2.9,2.9,97,0.00,,---,0.97,VWS V14.01,2013-01-31 04:43:00,
2013-01-30 23:47:00,54.3,53.5,28.51,South,175,2.0,2.9,97,0.00,,---,0.98,VWS V14.01,2013-01-31 04:47:00,
2013-01-30 23:48:00,54.3,53.5,28.51,South,175,2.0,2.9,97,0.00,,---,0.98,VWS V14.01,2013-01-31 04:48:00,
2013-01-30 23:52:00,54.3,53.5,28.50,SSE,161,0.9,2.0,97,0.00,,---,0.98,VWS V14.01,2013-01-31 04:52:00,
2013-01-30 23:53:00,54.3,53.5,28.50,SSE,161,0.9,2.0,97,0.00,,---,0.98,VWS V14.01,2013-01-31 04:53:00,
2013-01-30 23:57:00,54.3,53.5,28.49,SSE,163,2.0,2.0,97,0.00,,---,0.98,VWS V14.01,2013-01-31 04:57:00,
2013-01-30 23:58:00,54.3,53.5,28.49,SSE,163,2.0,2.0,97,0.00,,---,0.98,VWS V14.01,2013-01-31 04:58:00,